<?xml version="1.0" encoding="UTF-8" standalone="no" ?>
<gpx xmlns="http://www.topografix.com/GPX/1/1" xmlns:xsi="http://www.w3.org/2001/XMLSchema-instance" xsi:schemaLocation="http://www.topografix.com/GPX/1/1 http://www.topografix.com/GPX/1/1/gpx.xsd" version="1.1" creator="VisuGPX - https://www.visugpx.com">
  <metadata>
    <name>boucle du pic du gar</name>
    <desc><![CDATA[boucle deu pic du gar
depart de Bezins garraux
passage par le col de caube]]></desc>
  </metadata>
  <wpt lat="42.93283" lon="0.69705">
    <ele>733</ele>
    <name><![CDATA[Bezins Garraux]]></name>
    <desc><![CDATA[19-MAI-09 17:05:33]]></desc>
    <cmt><![CDATA[19-MAI-09 17:05:33]]></cmt>
  </wpt>
  <wpt lat="42.95024" lon="0.6987">
    <ele>1792</ele>
    <name><![CDATA[Pic de Gar]]></name>
    <desc><![CDATA[19-MAI-09 12:33:48]]></desc>
    <cmt><![CDATA[19-MAI-09 12:33:48]]></cmt>
  </wpt>
  <trk>
    <name><![CDATA[ACTIVE LOG 004]]></name>
    <trkseg>
      <trkpt lat="42.95059" lon="0.69923">
        <ele>1774.7312012</ele>
        <time>2009-05-19T11:51:28Z</time>
      </trkpt>
      <trkpt lat="42.9506" lon="0.69922">
        <ele>1775.2116699</ele>
        <time>2009-05-19T11:51:54Z</time>
      </trkpt>
      <trkpt lat="42.9506" lon="0.69921">
        <ele>1779.0568848</ele>
        <time>2009-05-19T11:54:01Z</time>
      </trkpt>
      <trkpt lat="42.9506" lon="0.69922">
        <ele>1778.0957031</ele>
        <time>2009-05-19T11:54:21Z</time>
      </trkpt>
      <trkpt lat="42.95061" lon="0.69922">
        <ele>1777.1345215</ele>
        <time>2009-05-19T11:54:48Z</time>
      </trkpt>
      <trkpt lat="42.95061" lon="0.69921">
        <ele>1775.2116699</ele>
        <time>2009-05-19T11:55:10Z</time>
      </trkpt>
      <trkpt lat="42.95061" lon="0.69921">
        <ele>1777.6149902</ele>
        <time>2009-05-19T11:55:40Z</time>
      </trkpt>
      <trkpt lat="42.95064" lon="0.69917">
        <ele>1776.6538086</ele>
        <time>2009-05-19T11:55:58Z</time>
      </trkpt>
      <trkpt lat="42.95068" lon="0.69914">
        <ele>1774.7312012</ele>
        <time>2009-05-19T11:56:19Z</time>
      </trkpt>
      <trkpt lat="42.95074" lon="0.6991">
        <ele>1773.7697754</ele>
        <time>2009-05-19T11:56:31Z</time>
      </trkpt>
      <trkpt lat="42.95078" lon="0.69899">
        <ele>1771.3662109</ele>
        <time>2009-05-19T11:56:45Z</time>
      </trkpt>
      <trkpt lat="42.95086" lon="0.69888">
        <ele>1768.9631348</ele>
        <time>2009-05-19T11:57:00Z</time>
      </trkpt>
      <trkpt lat="42.95095" lon="0.69876">
        <ele>1767.0405273</ele>
        <time>2009-05-19T11:57:17Z</time>
      </trkpt>
      <trkpt lat="42.95103" lon="0.69872">
        <ele>1765.5986328</ele>
        <time>2009-05-19T11:57:31Z</time>
      </trkpt>
      <trkpt lat="42.95111" lon="0.69871">
        <ele>1764.1564941</ele>
        <time>2009-05-19T11:57:45Z</time>
      </trkpt>
      <trkpt lat="42.95124" lon="0.69874">
        <ele>1761.753418</ele>
        <time>2009-05-19T11:58:01Z</time>
      </trkpt>
      <trkpt lat="42.95135" lon="0.69872">
        <ele>1758.8693848</ele>
        <time>2009-05-19T11:58:15Z</time>
      </trkpt>
      <trkpt lat="42.95141" lon="0.69873">
        <ele>1757.4274902</ele>
        <time>2009-05-19T11:58:29Z</time>
      </trkpt>
      <trkpt lat="42.95145" lon="0.69879">
        <ele>1754.5432129</ele>
        <time>2009-05-19T11:58:43Z</time>
      </trkpt>
      <trkpt lat="42.95147" lon="0.69886">
        <ele>1752.1398926</ele>
        <time>2009-05-19T11:58:56Z</time>
      </trkpt>
      <trkpt lat="42.9515" lon="0.6989">
        <ele>1749.7368164</ele>
        <time>2009-05-19T11:59:10Z</time>
      </trkpt>
      <trkpt lat="42.95155" lon="0.69887">
        <ele>1748.2946777</ele>
        <time>2009-05-19T11:59:25Z</time>
      </trkpt>
      <trkpt lat="42.95158" lon="0.69886">
        <ele>1746.8527832</ele>
        <time>2009-05-19T11:59:39Z</time>
      </trkpt>
      <trkpt lat="42.95158" lon="0.69884">
        <ele>1747.3334961</ele>
        <time>2009-05-19T12:00:00Z</time>
      </trkpt>
      <trkpt lat="42.9516" lon="0.69888">
        <ele>1746.3723145</ele>
        <time>2009-05-19T12:00:44Z</time>
      </trkpt>
      <trkpt lat="42.95158" lon="0.69897">
        <ele>1744.4494629</ele>
        <time>2009-05-19T12:00:59Z</time>
      </trkpt>
      <trkpt lat="42.95155" lon="0.69904">
        <ele>1742.5270996</ele>
        <time>2009-05-19T12:01:15Z</time>
      </trkpt>
      <trkpt lat="42.95154" lon="0.69908">
        <ele>1741.0849609</ele>
        <time>2009-05-19T12:01:28Z</time>
      </trkpt>
      <trkpt lat="42.95153" lon="0.69913">
        <ele>1740.1237793</ele>
        <time>2009-05-19T12:01:41Z</time>
      </trkpt>
      <trkpt lat="42.95152" lon="0.69916">
        <ele>1738.6816406</ele>
        <time>2009-05-19T12:01:55Z</time>
      </trkpt>
      <trkpt lat="42.95151" lon="0.6992">
        <ele>1737.7202148</ele>
        <time>2009-05-19T12:02:09Z</time>
      </trkpt>
      <trkpt lat="42.95152" lon="0.69922">
        <ele>1735.3168945</ele>
        <time>2009-05-19T12:02:23Z</time>
      </trkpt>
      <trkpt lat="42.95151" lon="0.69925">
        <ele>1735.3168945</ele>
        <time>2009-05-19T12:02:39Z</time>
      </trkpt>
      <trkpt lat="42.9515" lon="0.69929">
        <ele>1733.3942871</ele>
        <time>2009-05-19T12:02:53Z</time>
      </trkpt>
      <trkpt lat="42.95145" lon="0.69937">
        <ele>1733.875</ele>
        <time>2009-05-19T12:03:07Z</time>
      </trkpt>
      <trkpt lat="42.95142" lon="0.69944">
        <ele>1733.875</ele>
        <time>2009-05-19T12:03:21Z</time>
      </trkpt>
      <trkpt lat="42.95136" lon="0.69952">
        <ele>1734.8364258</ele>
        <time>2009-05-19T12:03:37Z</time>
      </trkpt>
      <trkpt lat="42.95132" lon="0.69956">
        <ele>1735.3168945</ele>
        <time>2009-05-19T12:03:50Z</time>
      </trkpt>
      <trkpt lat="42.95128" lon="0.69961">
        <ele>1735.3168945</ele>
        <time>2009-05-19T12:04:03Z</time>
      </trkpt>
      <trkpt lat="42.95124" lon="0.69969">
        <ele>1735.3168945</ele>
        <time>2009-05-19T12:04:17Z</time>
      </trkpt>
      <trkpt lat="42.9512" lon="0.69978">
        <ele>1735.3168945</ele>
        <time>2009-05-19T12:04:29Z</time>
      </trkpt>
      <trkpt lat="42.95118" lon="0.69981">
        <ele>1732.9135742</ele>
        <time>2009-05-19T12:04:42Z</time>
      </trkpt>
      <trkpt lat="42.95115" lon="0.69986">
        <ele>1733.3942871</ele>
        <time>2009-05-19T12:04:56Z</time>
      </trkpt>
      <trkpt lat="42.9511" lon="0.69997">
        <ele>1737.239502</ele>
        <time>2009-05-19T12:05:12Z</time>
      </trkpt>
      <trkpt lat="42.95105" lon="0.70005">
        <ele>1737.7202148</ele>
        <time>2009-05-19T12:05:25Z</time>
      </trkpt>
      <trkpt lat="42.95104" lon="0.70009">
        <ele>1736.7587891</ele>
        <time>2009-05-19T12:05:28Z</time>
      </trkpt>
      <trkpt lat="42.95097" lon="0.7002">
        <ele>1737.239502</ele>
        <time>2009-05-19T12:05:45Z</time>
      </trkpt>
      <trkpt lat="42.95097" lon="0.70026">
        <ele>1738.2009277</ele>
        <time>2009-05-19T12:06:01Z</time>
      </trkpt>
      <trkpt lat="42.95096" lon="0.70031">
        <ele>1739.6428223</ele>
        <time>2009-05-19T12:06:14Z</time>
      </trkpt>
      <trkpt lat="42.9509" lon="0.7004">
        <ele>1742.0463867</ele>
        <time>2009-05-19T12:06:31Z</time>
      </trkpt>
      <trkpt lat="42.95088" lon="0.70049">
        <ele>1742.0463867</ele>
        <time>2009-05-19T12:06:45Z</time>
      </trkpt>
      <trkpt lat="42.95083" lon="0.70054">
        <ele>1743.0075684</ele>
        <time>2009-05-19T12:07:00Z</time>
      </trkpt>
      <trkpt lat="42.9508" lon="0.70064">
        <ele>1743.4882813</ele>
        <time>2009-05-19T12:07:14Z</time>
      </trkpt>
      <trkpt lat="42.9508" lon="0.70078">
        <ele>1742.0463867</ele>
        <time>2009-05-19T12:07:27Z</time>
      </trkpt>
      <trkpt lat="42.95081" lon="0.70092">
        <ele>1740.604248</ele>
        <time>2009-05-19T12:07:42Z</time>
      </trkpt>
      <trkpt lat="42.95082" lon="0.70099">
        <ele>1739.6428223</ele>
        <time>2009-05-19T12:07:54Z</time>
      </trkpt>
      <trkpt lat="42.95084" lon="0.70108">
        <ele>1735.3168945</ele>
        <time>2009-05-19T12:08:06Z</time>
      </trkpt>
      <trkpt lat="42.95086" lon="0.70112">
        <ele>1735.7976074</ele>
        <time>2009-05-19T12:08:18Z</time>
      </trkpt>
      <trkpt lat="42.95089" lon="0.70114">
        <ele>1740.1237793</ele>
        <time>2009-05-19T12:08:39Z</time>
      </trkpt>
      <trkpt lat="42.95093" lon="0.70122">
        <ele>1738.6816406</ele>
        <time>2009-05-19T12:08:53Z</time>
      </trkpt>
      <trkpt lat="42.95094" lon="0.70135">
        <ele>1738.2009277</ele>
        <time>2009-05-19T12:09:08Z</time>
      </trkpt>
      <trkpt lat="42.95097" lon="0.70144">
        <ele>1742.0463867</ele>
        <time>2009-05-19T12:09:22Z</time>
      </trkpt>
      <trkpt lat="42.95096" lon="0.70152">
        <ele>1739.1621094</ele>
        <time>2009-05-19T12:09:34Z</time>
      </trkpt>
      <trkpt lat="42.95096" lon="0.70159">
        <ele>1735.7976074</ele>
        <time>2009-05-19T12:09:50Z</time>
      </trkpt>
      <trkpt lat="42.95098" lon="0.70167">
        <ele>1736.2783203</ele>
        <time>2009-05-19T12:10:04Z</time>
      </trkpt>
      <trkpt lat="42.95096" lon="0.70182">
        <ele>1732.9135742</ele>
        <time>2009-05-19T12:10:18Z</time>
      </trkpt>
      <trkpt lat="42.95097" lon="0.70191">
        <ele>1732.4331055</ele>
        <time>2009-05-19T12:10:30Z</time>
      </trkpt>
      <trkpt lat="42.95097" lon="0.70199">
        <ele>1732.9135742</ele>
        <time>2009-05-19T12:10:45Z</time>
      </trkpt>
      <trkpt lat="42.95097" lon="0.70202">
        <ele>1733.3942871</ele>
        <time>2009-05-19T12:10:56Z</time>
      </trkpt>
      <trkpt lat="42.95097" lon="0.70211">
        <ele>1735.3168945</ele>
        <time>2009-05-19T12:11:11Z</time>
      </trkpt>
      <trkpt lat="42.95098" lon="0.70217">
        <ele>1735.7976074</ele>
        <time>2009-05-19T12:11:26Z</time>
      </trkpt>
      <trkpt lat="42.95095" lon="0.70225">
        <ele>1726.6652832</ele>
        <time>2009-05-19T12:11:46Z</time>
      </trkpt>
      <trkpt lat="42.95096" lon="0.70231">
        <ele>1725.7038574</ele>
        <time>2009-05-19T12:12:05Z</time>
      </trkpt>
      <trkpt lat="42.95096" lon="0.7024">
        <ele>1726.6652832</ele>
        <time>2009-05-19T12:12:18Z</time>
      </trkpt>
      <trkpt lat="42.95097" lon="0.70251">
        <ele>1726.6652832</ele>
        <time>2009-05-19T12:12:32Z</time>
      </trkpt>
      <trkpt lat="42.951" lon="0.70261">
        <ele>1728.5878906</ele>
        <time>2009-05-19T12:12:48Z</time>
      </trkpt>
      <trkpt lat="42.95102" lon="0.70272">
        <ele>1730.0297852</ele>
        <time>2009-05-19T12:13:04Z</time>
      </trkpt>
      <trkpt lat="42.95103" lon="0.70282">
        <ele>1730.0297852</ele>
        <time>2009-05-19T12:13:21Z</time>
      </trkpt>
      <trkpt lat="42.95107" lon="0.70295">
        <ele>1735.3168945</ele>
        <time>2009-05-19T12:13:37Z</time>
      </trkpt>
      <trkpt lat="42.95106" lon="0.70306">
        <ele>1736.2783203</ele>
        <time>2009-05-19T12:13:51Z</time>
      </trkpt>
      <trkpt lat="42.95103" lon="0.70317">
        <ele>1736.7587891</ele>
        <time>2009-05-19T12:14:07Z</time>
      </trkpt>
      <trkpt lat="42.951" lon="0.70331">
        <ele>1738.2009277</ele>
        <time>2009-05-19T12:14:25Z</time>
      </trkpt>
      <trkpt lat="42.95098" lon="0.7034">
        <ele>1738.6816406</ele>
        <time>2009-05-19T12:14:40Z</time>
      </trkpt>
      <trkpt lat="42.95095" lon="0.7035">
        <ele>1738.6816406</ele>
        <time>2009-05-19T12:14:54Z</time>
      </trkpt>
      <trkpt lat="42.95094" lon="0.70365">
        <ele>1735.3168945</ele>
        <time>2009-05-19T12:15:10Z</time>
      </trkpt>
      <trkpt lat="42.95097" lon="0.70368">
        <ele>1734.8364258</ele>
        <time>2009-05-19T12:15:20Z</time>
      </trkpt>
      <trkpt lat="42.95097" lon="0.70371">
        <ele>1735.3168945</ele>
        <time>2009-05-19T12:15:38Z</time>
      </trkpt>
      <trkpt lat="42.95099" lon="0.70375">
        <ele>1735.7976074</ele>
        <time>2009-05-19T12:16:15Z</time>
      </trkpt>
      <trkpt lat="42.95099" lon="0.70373">
        <ele>1735.3168945</ele>
        <time>2009-05-19T12:16:34Z</time>
      </trkpt>
      <trkpt lat="42.95102" lon="0.70377">
        <ele>1733.3942871</ele>
        <time>2009-05-19T12:16:53Z</time>
      </trkpt>
      <trkpt lat="42.95104" lon="0.70384">
        <ele>1732.4331055</ele>
        <time>2009-05-19T12:17:07Z</time>
      </trkpt>
      <trkpt lat="42.95105" lon="0.70393">
        <ele>1729.5490723</ele>
        <time>2009-05-19T12:17:21Z</time>
      </trkpt>
      <trkpt lat="42.95107" lon="0.70406">
        <ele>1728.5878906</ele>
        <time>2009-05-19T12:17:35Z</time>
      </trkpt>
      <trkpt lat="42.95107" lon="0.70415">
        <ele>1729.5490723</ele>
        <time>2009-05-19T12:17:50Z</time>
      </trkpt>
      <trkpt lat="42.95108" lon="0.70422">
        <ele>1728.1071777</ele>
        <time>2009-05-19T12:18:01Z</time>
      </trkpt>
      <trkpt lat="42.9511" lon="0.70431">
        <ele>1727.1459961</ele>
        <time>2009-05-19T12:18:14Z</time>
      </trkpt>
      <trkpt lat="42.95113" lon="0.70434">
        <ele>1725.7038574</ele>
        <time>2009-05-19T12:18:19Z</time>
      </trkpt>
      <trkpt lat="42.95119" lon="0.70443">
        <ele>1726.1845703</ele>
        <time>2009-05-19T12:18:32Z</time>
      </trkpt>
      <trkpt lat="42.95123" lon="0.70455">
        <ele>1730.9912109</ele>
        <time>2009-05-19T12:18:46Z</time>
      </trkpt>
      <trkpt lat="42.95128" lon="0.70469">
        <ele>1732.9135742</ele>
        <time>2009-05-19T12:19:03Z</time>
      </trkpt>
      <trkpt lat="42.95131" lon="0.70483">
        <ele>1732.9135742</ele>
        <time>2009-05-19T12:19:19Z</time>
      </trkpt>
      <trkpt lat="42.95133" lon="0.70493">
        <ele>1734.3557129</ele>
        <time>2009-05-19T12:19:33Z</time>
      </trkpt>
      <trkpt lat="42.95134" lon="0.70507">
        <ele>1733.3942871</ele>
        <time>2009-05-19T12:19:47Z</time>
      </trkpt>
      <trkpt lat="42.95131" lon="0.70519">
        <ele>1735.7976074</ele>
        <time>2009-05-19T12:20:01Z</time>
      </trkpt>
      <trkpt lat="42.95131" lon="0.70522">
        <ele>1730.0297852</ele>
        <time>2009-05-19T12:20:19Z</time>
      </trkpt>
      <trkpt lat="42.95127" lon="0.70526">
        <ele>1730.510498</ele>
        <time>2009-05-19T12:20:34Z</time>
      </trkpt>
      <trkpt lat="42.95124" lon="0.70526">
        <ele>1730.0297852</ele>
        <time>2009-05-19T12:20:49Z</time>
      </trkpt>
      <trkpt lat="42.95119" lon="0.70529">
        <ele>1727.1459961</ele>
        <time>2009-05-19T12:21:05Z</time>
      </trkpt>
      <trkpt lat="42.95116" lon="0.70533">
        <ele>1726.6652832</ele>
        <time>2009-05-19T12:21:17Z</time>
      </trkpt>
      <trkpt lat="42.95114" lon="0.70534">
        <ele>1729.5490723</ele>
        <time>2009-05-19T12:21:41Z</time>
      </trkpt>
      <trkpt lat="42.95114" lon="0.70542">
        <ele>1730.9912109</ele>
        <time>2009-05-19T12:21:56Z</time>
      </trkpt>
      <trkpt lat="42.95112" lon="0.70548">
        <ele>1730.9912109</ele>
        <time>2009-05-19T12:22:09Z</time>
      </trkpt>
      <trkpt lat="42.95108" lon="0.70556">
        <ele>1730.9912109</ele>
        <time>2009-05-19T12:22:24Z</time>
      </trkpt>
      <trkpt lat="42.95108" lon="0.70561">
        <ele>1730.510498</ele>
        <time>2009-05-19T12:22:40Z</time>
      </trkpt>
      <trkpt lat="42.95107" lon="0.70568">
        <ele>1730.0297852</ele>
        <time>2009-05-19T12:22:56Z</time>
      </trkpt>
      <trkpt lat="42.95107" lon="0.7057">
        <ele>1730.0297852</ele>
        <time>2009-05-19T12:23:22Z</time>
      </trkpt>
      <trkpt lat="42.95109" lon="0.70575">
        <ele>1730.0297852</ele>
        <time>2009-05-19T12:23:51Z</time>
      </trkpt>
      <trkpt lat="42.95113" lon="0.70572">
        <ele>1727.6264648</ele>
        <time>2009-05-19T12:24:03Z</time>
      </trkpt>
      <trkpt lat="42.95118" lon="0.70573">
        <ele>1725.2231445</ele>
        <time>2009-05-19T12:24:18Z</time>
      </trkpt>
      <trkpt lat="42.95122" lon="0.70573">
        <ele>1722.8198242</ele>
        <time>2009-05-19T12:24:33Z</time>
      </trkpt>
      <trkpt lat="42.95122" lon="0.70571">
        <ele>1722.8198242</ele>
        <time>2009-05-19T12:24:45Z</time>
      </trkpt>
      <trkpt lat="42.95127" lon="0.70573">
        <ele>1720.4165039</ele>
        <time>2009-05-19T12:25:10Z</time>
      </trkpt>
      <trkpt lat="42.95131" lon="0.70574">
        <ele>1718.9746094</ele>
        <time>2009-05-19T12:25:21Z</time>
      </trkpt>
      <trkpt lat="42.95131" lon="0.70583">
        <ele>1718.0131836</ele>
        <time>2009-05-19T12:25:35Z</time>
      </trkpt>
      <trkpt lat="42.9513" lon="0.70588">
        <ele>1717.052002</ele>
        <time>2009-05-19T12:25:47Z</time>
      </trkpt>
      <trkpt lat="42.95135" lon="0.70592">
        <ele>1714.6486816</ele>
        <time>2009-05-19T12:26:03Z</time>
      </trkpt>
      <trkpt lat="42.95138" lon="0.70599">
        <ele>1710.3227539</ele>
        <time>2009-05-19T12:26:17Z</time>
      </trkpt>
      <trkpt lat="42.9514" lon="0.70602">
        <ele>1708.4001465</ele>
        <time>2009-05-19T12:26:28Z</time>
      </trkpt>
      <trkpt lat="42.95143" lon="0.70606">
        <ele>1705.5161133</ele>
        <time>2009-05-19T12:26:43Z</time>
      </trkpt>
      <trkpt lat="42.95141" lon="0.70614">
        <ele>1702.6320801</ele>
        <time>2009-05-19T12:26:57Z</time>
      </trkpt>
      <trkpt lat="42.95142" lon="0.70618">
        <ele>1700.7094727</ele>
        <time>2009-05-19T12:27:09Z</time>
      </trkpt>
      <trkpt lat="42.95137" lon="0.70627">
        <ele>1698.7868652</ele>
        <time>2009-05-19T12:27:25Z</time>
      </trkpt>
      <trkpt lat="42.95137" lon="0.70632">
        <ele>1696.8642578</ele>
        <time>2009-05-19T12:27:39Z</time>
      </trkpt>
      <trkpt lat="42.95136" lon="0.70636">
        <ele>1694.9416504</ele>
        <time>2009-05-19T12:27:52Z</time>
      </trkpt>
      <trkpt lat="42.95136" lon="0.70642">
        <ele>1691.0961914</ele>
        <time>2009-05-19T12:28:07Z</time>
      </trkpt>
      <trkpt lat="42.95135" lon="0.70647">
        <ele>1688.6931152</ele>
        <time>2009-05-19T12:28:22Z</time>
      </trkpt>
      <trkpt lat="42.95137" lon="0.70648">
        <ele>1686.7702637</ele>
        <time>2009-05-19T12:28:32Z</time>
      </trkpt>
      <trkpt lat="42.95139" lon="0.70651">
        <ele>1685.3283691</ele>
        <time>2009-05-19T12:28:45Z</time>
      </trkpt>
      <trkpt lat="42.95141" lon="0.70656">
        <ele>1682.9250488</ele>
        <time>2009-05-19T12:29:00Z</time>
      </trkpt>
      <trkpt lat="42.95138" lon="0.7066">
        <ele>1681.0026855</ele>
        <time>2009-05-19T12:29:16Z</time>
      </trkpt>
      <trkpt lat="42.95136" lon="0.70662">
        <ele>1680.5219727</ele>
        <time>2009-05-19T12:29:31Z</time>
      </trkpt>
      <trkpt lat="42.95135" lon="0.70664">
        <ele>1679.079834</ele>
        <time>2009-05-19T12:29:43Z</time>
      </trkpt>
      <trkpt lat="42.95133" lon="0.70669">
        <ele>1678.5993652</ele>
        <time>2009-05-19T12:30:01Z</time>
      </trkpt>
      <trkpt lat="42.95129" lon="0.70674">
        <ele>1673.7924805</ele>
        <time>2009-05-19T12:30:16Z</time>
      </trkpt>
      <trkpt lat="42.95126" lon="0.7068">
        <ele>1670.9086914</ele>
        <time>2009-05-19T12:30:29Z</time>
      </trkpt>
      <trkpt lat="42.95124" lon="0.70691">
        <ele>1668.5053711</ele>
        <time>2009-05-19T12:30:42Z</time>
      </trkpt>
      <trkpt lat="42.95119" lon="0.70698">
        <ele>1665.621582</ele>
        <time>2009-05-19T12:30:55Z</time>
      </trkpt>
      <trkpt lat="42.95116" lon="0.70708">
        <ele>1663.6987305</ele>
        <time>2009-05-19T12:31:08Z</time>
      </trkpt>
      <trkpt lat="42.95118" lon="0.70716">
        <ele>1661.2956543</ele>
        <time>2009-05-19T12:31:19Z</time>
      </trkpt>
      <trkpt lat="42.9512" lon="0.70722">
        <ele>1659.8532715</ele>
        <time>2009-05-19T12:31:30Z</time>
      </trkpt>
      <trkpt lat="42.9512" lon="0.70726">
        <ele>1659.8532715</ele>
        <time>2009-05-19T12:31:45Z</time>
      </trkpt>
      <trkpt lat="42.9512" lon="0.70734">
        <ele>1661.2956543</ele>
        <time>2009-05-19T12:31:59Z</time>
      </trkpt>
      <trkpt lat="42.95118" lon="0.70735">
        <ele>1661.7763672</ele>
        <time>2009-05-19T12:32:12Z</time>
      </trkpt>
      <trkpt lat="42.95115" lon="0.70737">
        <ele>1661.2956543</ele>
        <time>2009-05-19T12:32:45Z</time>
      </trkpt>
      <trkpt lat="42.95118" lon="0.70736">
        <ele>1661.2956543</ele>
        <time>2009-05-19T12:33:13Z</time>
      </trkpt>
      <trkpt lat="42.95118" lon="0.70746">
        <ele>1661.7763672</ele>
        <time>2009-05-19T12:33:24Z</time>
      </trkpt>
      <trkpt lat="42.95116" lon="0.70748">
        <ele>1656.0080566</ele>
        <time>2009-05-19T12:33:36Z</time>
      </trkpt>
      <trkpt lat="42.95116" lon="0.70755">
        <ele>1652.6435547</ele>
        <time>2009-05-19T12:33:48Z</time>
      </trkpt>
      <trkpt lat="42.95116" lon="0.70767">
        <ele>1652.1628418</ele>
        <time>2009-05-19T12:34:03Z</time>
      </trkpt>
      <trkpt lat="42.95114" lon="0.7078">
        <ele>1649.2790527</ele>
        <time>2009-05-19T12:34:14Z</time>
      </trkpt>
      <trkpt lat="42.95111" lon="0.70798">
        <ele>1646.8757324</ele>
        <time>2009-05-19T12:34:26Z</time>
      </trkpt>
      <trkpt lat="42.95107" lon="0.70816">
        <ele>1642.5498047</ele>
        <time>2009-05-19T12:34:39Z</time>
      </trkpt>
      <trkpt lat="42.95106" lon="0.70823">
        <ele>1642.0690918</ele>
        <time>2009-05-19T12:34:43Z</time>
      </trkpt>
      <trkpt lat="42.95106" lon="0.70831">
        <ele>1641.5883789</ele>
        <time>2009-05-19T12:34:50Z</time>
      </trkpt>
      <trkpt lat="42.95101" lon="0.70843">
        <ele>1640.1464844</ele>
        <time>2009-05-19T12:35:01Z</time>
      </trkpt>
      <trkpt lat="42.95101" lon="0.70849">
        <ele>1638.223877</ele>
        <time>2009-05-19T12:35:06Z</time>
      </trkpt>
      <trkpt lat="42.95098" lon="0.70864">
        <ele>1633.8979492</ele>
        <time>2009-05-19T12:35:21Z</time>
      </trkpt>
      <trkpt lat="42.95097" lon="0.70872">
        <ele>1631.4946289</ele>
        <time>2009-05-19T12:35:38Z</time>
      </trkpt>
      <trkpt lat="42.95097" lon="0.70878">
        <ele>1628.130127</ele>
        <time>2009-05-19T12:35:50Z</time>
      </trkpt>
      <trkpt lat="42.95096" lon="0.7088">
        <ele>1622.3620605</ele>
        <time>2009-05-19T12:36:08Z</time>
      </trkpt>
      <trkpt lat="42.95097" lon="0.70883">
        <ele>1619.9587402</ele>
        <time>2009-05-19T12:36:22Z</time>
      </trkpt>
      <trkpt lat="42.95096" lon="0.70893">
        <ele>1615.6330566</ele>
        <time>2009-05-19T12:36:39Z</time>
      </trkpt>
      <trkpt lat="42.95095" lon="0.70907">
        <ele>1618.9975586</ele>
        <time>2009-05-19T12:36:53Z</time>
      </trkpt>
      <trkpt lat="42.95093" lon="0.7092">
        <ele>1620.920166</ele>
        <time>2009-05-19T12:37:08Z</time>
      </trkpt>
      <trkpt lat="42.95089" lon="0.70927">
        <ele>1623.3234863</ele>
        <time>2009-05-19T12:37:24Z</time>
      </trkpt>
      <trkpt lat="42.95084" lon="0.70933">
        <ele>1624.284668</ele>
        <time>2009-05-19T12:37:43Z</time>
      </trkpt>
      <trkpt lat="42.95077" lon="0.70928">
        <ele>1622.3620605</ele>
        <time>2009-05-19T12:38:13Z</time>
      </trkpt>
      <trkpt lat="42.95075" lon="0.70929">
        <ele>1623.8039551</ele>
        <time>2009-05-19T12:38:54Z</time>
      </trkpt>
      <trkpt lat="42.95075" lon="0.70935">
        <ele>1624.284668</ele>
        <time>2009-05-19T12:39:27Z</time>
      </trkpt>
      <trkpt lat="42.95073" lon="0.70955">
        <ele>1627.1687012</ele>
        <time>2009-05-19T12:39:43Z</time>
      </trkpt>
      <trkpt lat="42.95071" lon="0.70972">
        <ele>1629.5720215</ele>
        <time>2009-05-19T12:39:58Z</time>
      </trkpt>
      <trkpt lat="42.95067" lon="0.70981">
        <ele>1630.5334473</ele>
        <time>2009-05-19T12:40:12Z</time>
      </trkpt>
      <trkpt lat="42.95066" lon="0.70989">
        <ele>1629.0913086</ele>
        <time>2009-05-19T12:40:28Z</time>
      </trkpt>
      <trkpt lat="42.95064" lon="0.70997">
        <ele>1624.284668</ele>
        <time>2009-05-19T12:41:00Z</time>
      </trkpt>
      <trkpt lat="42.95062" lon="0.70999">
        <ele>1622.3620605</ele>
        <time>2009-05-19T12:41:14Z</time>
      </trkpt>
      <trkpt lat="42.95056" lon="0.71005">
        <ele>1620.4394531</ele>
        <time>2009-05-19T12:41:30Z</time>
      </trkpt>
      <trkpt lat="42.95048" lon="0.71023">
        <ele>1621.4006348</ele>
        <time>2009-05-19T12:41:46Z</time>
      </trkpt>
      <trkpt lat="42.95048" lon="0.71036">
        <ele>1620.4394531</ele>
        <time>2009-05-19T12:42:00Z</time>
      </trkpt>
      <trkpt lat="42.95047" lon="0.71041">
        <ele>1620.4394531</ele>
        <time>2009-05-19T12:42:06Z</time>
      </trkpt>
      <trkpt lat="42.95042" lon="0.71058">
        <ele>1620.4394531</ele>
        <time>2009-05-19T12:42:21Z</time>
      </trkpt>
      <trkpt lat="42.95037" lon="0.71077">
        <ele>1621.4006348</ele>
        <time>2009-05-19T12:42:39Z</time>
      </trkpt>
      <trkpt lat="42.95037" lon="0.71086">
        <ele>1619.4782715</ele>
        <time>2009-05-19T12:42:53Z</time>
      </trkpt>
      <trkpt lat="42.95033" lon="0.71095">
        <ele>1618.9975586</ele>
        <time>2009-05-19T12:43:07Z</time>
      </trkpt>
      <trkpt lat="42.95029" lon="0.71108">
        <ele>1617.5554199</ele>
        <time>2009-05-19T12:43:24Z</time>
      </trkpt>
      <trkpt lat="42.95025" lon="0.7112">
        <ele>1616.5942383</ele>
        <time>2009-05-19T12:43:37Z</time>
      </trkpt>
      <trkpt lat="42.95021" lon="0.71126">
        <ele>1616.5942383</ele>
        <time>2009-05-19T12:43:49Z</time>
      </trkpt>
      <trkpt lat="42.95015" lon="0.71141">
        <ele>1617.0749512</ele>
        <time>2009-05-19T12:44:06Z</time>
      </trkpt>
      <trkpt lat="42.95012" lon="0.71151">
        <ele>1616.1135254</ele>
        <time>2009-05-19T12:44:21Z</time>
      </trkpt>
      <trkpt lat="42.95008" lon="0.71164">
        <ele>1616.1135254</ele>
        <time>2009-05-19T12:44:33Z</time>
      </trkpt>
      <trkpt lat="42.95004" lon="0.71176">
        <ele>1615.6330566</ele>
        <time>2009-05-19T12:44:45Z</time>
      </trkpt>
      <trkpt lat="42.95002" lon="0.7119">
        <ele>1616.5942383</ele>
        <time>2009-05-19T12:44:57Z</time>
      </trkpt>
      <trkpt lat="42.94998" lon="0.71208">
        <ele>1614.6716309</ele>
        <time>2009-05-19T12:45:10Z</time>
      </trkpt>
      <trkpt lat="42.94992" lon="0.71223">
        <ele>1610.8261719</ele>
        <time>2009-05-19T12:45:25Z</time>
      </trkpt>
      <trkpt lat="42.94982" lon="0.71235">
        <ele>1604.5776367</ele>
        <time>2009-05-19T12:45:40Z</time>
      </trkpt>
      <trkpt lat="42.94973" lon="0.71245">
        <ele>1608.4228516</ele>
        <time>2009-05-19T12:45:54Z</time>
      </trkpt>
      <trkpt lat="42.94963" lon="0.71253">
        <ele>1606.0195313</ele>
        <time>2009-05-19T12:46:10Z</time>
      </trkpt>
      <trkpt lat="42.94954" lon="0.71268">
        <ele>1606.980957</ele>
        <time>2009-05-19T12:46:26Z</time>
      </trkpt>
      <trkpt lat="42.94945" lon="0.71281">
        <ele>1604.5776367</ele>
        <time>2009-05-19T12:46:43Z</time>
      </trkpt>
      <trkpt lat="42.94929" lon="0.71298">
        <ele>1598.3291016</ele>
        <time>2009-05-19T12:47:03Z</time>
      </trkpt>
      <trkpt lat="42.94927" lon="0.71318">
        <ele>1594.0031738</ele>
        <time>2009-05-19T12:47:18Z</time>
      </trkpt>
      <trkpt lat="42.94927" lon="0.71339">
        <ele>1591.1191406</ele>
        <time>2009-05-19T12:47:34Z</time>
      </trkpt>
      <trkpt lat="42.9493" lon="0.71359">
        <ele>1588.2353516</ele>
        <time>2009-05-19T12:47:53Z</time>
      </trkpt>
      <trkpt lat="42.94932" lon="0.71367">
        <ele>1585.3513184</ele>
        <time>2009-05-19T12:48:09Z</time>
      </trkpt>
      <trkpt lat="42.94933" lon="0.71372">
        <ele>1583.4287109</ele>
        <time>2009-05-19T12:48:26Z</time>
      </trkpt>
      <trkpt lat="42.94933" lon="0.71372">
        <ele>1581.9868164</ele>
        <time>2009-05-19T12:48:46Z</time>
      </trkpt>
      <trkpt lat="42.94933" lon="0.71372">
        <ele>1582.947998</ele>
        <time>2009-05-19T12:49:00Z</time>
      </trkpt>
      <trkpt lat="42.94933" lon="0.71372">
        <ele>1582.4675293</ele>
        <time>2009-05-19T12:49:18Z</time>
      </trkpt>
      <trkpt lat="42.94934" lon="0.71371">
        <ele>1580.5449219</ele>
        <time>2009-05-19T12:49:45Z</time>
      </trkpt>
      <trkpt lat="42.94934" lon="0.71373">
        <ele>1580.5449219</ele>
        <time>2009-05-19T12:50:04Z</time>
      </trkpt>
      <trkpt lat="42.94934" lon="0.71376">
        <ele>1584.8708496</ele>
        <time>2009-05-19T12:50:36Z</time>
      </trkpt>
      <trkpt lat="42.94932" lon="0.71375">
        <ele>1583.4287109</ele>
        <time>2009-05-19T12:50:54Z</time>
      </trkpt>
      <trkpt lat="42.94935" lon="0.71377">
        <ele>1581.0256348</ele>
        <time>2009-05-19T12:51:07Z</time>
      </trkpt>
      <trkpt lat="42.94944" lon="0.71378">
        <ele>1578.1413574</ele>
        <time>2009-05-19T12:51:22Z</time>
      </trkpt>
      <trkpt lat="42.94952" lon="0.71379">
        <ele>1573.3349609</ele>
        <time>2009-05-19T12:51:39Z</time>
      </trkpt>
      <trkpt lat="42.94958" lon="0.71391">
        <ele>1570.4509277</ele>
        <time>2009-05-19T12:51:52Z</time>
      </trkpt>
      <trkpt lat="42.94961" lon="0.714">
        <ele>1569.0090332</ele>
        <time>2009-05-19T12:52:00Z</time>
      </trkpt>
      <trkpt lat="42.94966" lon="0.71419">
        <ele>1566.125</ele>
        <time>2009-05-19T12:52:18Z</time>
      </trkpt>
      <trkpt lat="42.9497" lon="0.71443">
        <ele>1562.7602539</ele>
        <time>2009-05-19T12:52:38Z</time>
      </trkpt>
      <trkpt lat="42.9497" lon="0.71447">
        <ele>1562.279541</ele>
        <time>2009-05-19T12:52:41Z</time>
      </trkpt>
      <trkpt lat="42.94974" lon="0.71467">
        <ele>1560.3569336</ele>
        <time>2009-05-19T12:52:58Z</time>
      </trkpt>
      <trkpt lat="42.94979" lon="0.71476">
        <ele>1558.9150391</ele>
        <time>2009-05-19T12:53:08Z</time>
      </trkpt>
      <trkpt lat="42.94984" lon="0.71486">
        <ele>1558.9150391</ele>
        <time>2009-05-19T12:53:22Z</time>
      </trkpt>
      <trkpt lat="42.94984" lon="0.71498">
        <ele>1560.3569336</ele>
        <time>2009-05-19T12:53:37Z</time>
      </trkpt>
      <trkpt lat="42.94984" lon="0.7151">
        <ele>1560.3569336</ele>
        <time>2009-05-19T12:53:52Z</time>
      </trkpt>
      <trkpt lat="42.94982" lon="0.71518">
        <ele>1557.9538574</ele>
        <time>2009-05-19T12:54:07Z</time>
      </trkpt>
      <trkpt lat="42.94981" lon="0.71525">
        <ele>1555.5505371</ele>
        <time>2009-05-19T12:54:20Z</time>
      </trkpt>
      <trkpt lat="42.94983" lon="0.7153">
        <ele>1554.1086426</ele>
        <time>2009-05-19T12:54:31Z</time>
      </trkpt>
      <trkpt lat="42.94983" lon="0.7154">
        <ele>1551.7053223</ele>
        <time>2009-05-19T12:54:48Z</time>
      </trkpt>
      <trkpt lat="42.94982" lon="0.71544">
        <ele>1552.6665039</ele>
        <time>2009-05-19T12:55:21Z</time>
      </trkpt>
      <trkpt lat="42.94985" lon="0.71546">
        <ele>1550.7438965</ele>
        <time>2009-05-19T12:55:45Z</time>
      </trkpt>
      <trkpt lat="42.94979" lon="0.71548">
        <ele>1548.3405762</ele>
        <time>2009-05-19T12:56:04Z</time>
      </trkpt>
      <trkpt lat="42.94976" lon="0.7155">
        <ele>1548.8212891</ele>
        <time>2009-05-19T12:56:34Z</time>
      </trkpt>
      <trkpt lat="42.94974" lon="0.71549">
        <ele>1550.2634277</ele>
        <time>2009-05-19T12:56:55Z</time>
      </trkpt>
      <trkpt lat="42.94979" lon="0.71553">
        <ele>1544.0146484</ele>
        <time>2009-05-19T12:57:27Z</time>
      </trkpt>
      <trkpt lat="42.94978" lon="0.71549">
        <ele>1545.456543</ele>
        <time>2009-05-19T12:58:27Z</time>
      </trkpt>
      <trkpt lat="42.94979" lon="0.7155">
        <ele>1549.7827148</ele>
        <time>2009-05-19T12:58:52Z</time>
      </trkpt>
      <trkpt lat="42.94982" lon="0.7155">
        <ele>1544.9758301</ele>
        <time>2009-05-19T12:59:14Z</time>
      </trkpt>
      <trkpt lat="42.94982" lon="0.71549">
        <ele>1546.4179688</ele>
        <time>2009-05-19T12:59:44Z</time>
      </trkpt>
      <trkpt lat="42.9498" lon="0.71549">
        <ele>1547.3791504</ele>
        <time>2009-05-19T13:00:12Z</time>
      </trkpt>
      <trkpt lat="42.94985" lon="0.71548">
        <ele>1548.8212891</ele>
        <time>2009-05-19T13:00:40Z</time>
      </trkpt>
      <trkpt lat="42.94988" lon="0.71549">
        <ele>1551.7053223</ele>
        <time>2009-05-19T13:01:15Z</time>
      </trkpt>
      <trkpt lat="42.94982" lon="0.71552">
        <ele>1549.302002</ele>
        <time>2009-05-19T13:01:30Z</time>
      </trkpt>
      <trkpt lat="42.94982" lon="0.71548">
        <ele>1546.4179688</ele>
        <time>2009-05-19T13:02:01Z</time>
      </trkpt>
      <trkpt lat="42.94981" lon="0.71548">
        <ele>1550.2634277</ele>
        <time>2009-05-19T13:02:45Z</time>
      </trkpt>
      <trkpt lat="42.94982" lon="0.71551">
        <ele>1548.8212891</ele>
        <time>2009-05-19T13:03:24Z</time>
      </trkpt>
      <trkpt lat="42.94976" lon="0.71542">
        <ele>1553.6279297</ele>
        <time>2009-05-19T13:03:42Z</time>
      </trkpt>
      <trkpt lat="42.94979" lon="0.71536">
        <ele>1556.0310059</ele>
        <time>2009-05-19T13:03:55Z</time>
      </trkpt>
      <trkpt lat="42.94981" lon="0.71528">
        <ele>1557.4731445</ele>
        <time>2009-05-19T13:04:09Z</time>
      </trkpt>
      <trkpt lat="42.94983" lon="0.7152">
        <ele>1559.395752</ele>
        <time>2009-05-19T13:04:25Z</time>
      </trkpt>
      <trkpt lat="42.94985" lon="0.71517">
        <ele>1560.3569336</ele>
        <time>2009-05-19T13:04:32Z</time>
      </trkpt>
      <trkpt lat="42.94985" lon="0.71511">
        <ele>1560.3569336</ele>
        <time>2009-05-19T13:04:37Z</time>
      </trkpt>
      <trkpt lat="42.94987" lon="0.71492">
        <ele>1561.7990723</ele>
        <time>2009-05-19T13:04:53Z</time>
      </trkpt>
      <trkpt lat="42.94982" lon="0.71472">
        <ele>1562.7602539</ele>
        <time>2009-05-19T13:05:10Z</time>
      </trkpt>
      <trkpt lat="42.94973" lon="0.71465">
        <ele>1563.7214355</ele>
        <time>2009-05-19T13:05:24Z</time>
      </trkpt>
      <trkpt lat="42.94973" lon="0.71462">
        <ele>1562.279541</ele>
        <time>2009-05-19T13:05:43Z</time>
      </trkpt>
      <trkpt lat="42.9497" lon="0.7146">
        <ele>1562.279541</ele>
        <time>2009-05-19T13:06:02Z</time>
      </trkpt>
      <trkpt lat="42.94964" lon="0.71436">
        <ele>1564.6831055</ele>
        <time>2009-05-19T13:06:19Z</time>
      </trkpt>
      <trkpt lat="42.94954" lon="0.71422">
        <ele>1567.0864258</ele>
        <time>2009-05-19T13:06:35Z</time>
      </trkpt>
      <trkpt lat="42.94947" lon="0.7141">
        <ele>1569.9702148</ele>
        <time>2009-05-19T13:06:54Z</time>
      </trkpt>
      <trkpt lat="42.9495" lon="0.714">
        <ele>1573.3349609</ele>
        <time>2009-05-19T13:07:10Z</time>
      </trkpt>
      <trkpt lat="42.94945" lon="0.71396">
        <ele>1574.7768555</ele>
        <time>2009-05-19T13:07:23Z</time>
      </trkpt>
      <trkpt lat="42.94944" lon="0.71387">
        <ele>1577.1801758</ele>
        <time>2009-05-19T13:07:39Z</time>
      </trkpt>
      <trkpt lat="42.94939" lon="0.71385">
        <ele>1579.1025391</ele>
        <time>2009-05-19T13:07:54Z</time>
      </trkpt>
      <trkpt lat="42.94934" lon="0.71379">
        <ele>1581.0256348</ele>
        <time>2009-05-19T13:08:10Z</time>
      </trkpt>
      <trkpt lat="42.94933" lon="0.71362">
        <ele>1584.3901367</ele>
        <time>2009-05-19T13:08:31Z</time>
      </trkpt>
      <trkpt lat="42.94924" lon="0.71354">
        <ele>1586.7932129</ele>
        <time>2009-05-19T13:08:47Z</time>
      </trkpt>
      <trkpt lat="42.94915" lon="0.7134">
        <ele>1586.7932129</ele>
        <time>2009-05-19T13:09:03Z</time>
      </trkpt>
      <trkpt lat="42.94915" lon="0.71339">
        <ele>1586.7932129</ele>
        <time>2009-05-19T13:09:07Z</time>
      </trkpt>
      <trkpt lat="42.94903" lon="0.71328">
        <ele>1583.9094238</ele>
        <time>2009-05-19T13:09:22Z</time>
      </trkpt>
      <trkpt lat="42.94892" lon="0.71327">
        <ele>1580.5449219</ele>
        <time>2009-05-19T13:09:37Z</time>
      </trkpt>
      <trkpt lat="42.94889" lon="0.71328">
        <ele>1579.583252</ele>
        <time>2009-05-19T13:09:41Z</time>
      </trkpt>
      <trkpt lat="42.94881" lon="0.71331">
        <ele>1576.21875</ele>
        <time>2009-05-19T13:09:57Z</time>
      </trkpt>
      <trkpt lat="42.94877" lon="0.71329">
        <ele>1575.2573242</ele>
        <time>2009-05-19T13:10:11Z</time>
      </trkpt>
      <trkpt lat="42.94873" lon="0.7133">
        <ele>1572.3735352</ele>
        <time>2009-05-19T13:10:24Z</time>
      </trkpt>
      <trkpt lat="42.94869" lon="0.71328">
        <ele>1570.4509277</ele>
        <time>2009-05-19T13:10:34Z</time>
      </trkpt>
      <trkpt lat="42.94862" lon="0.7133">
        <ele>1566.6057129</ele>
        <time>2009-05-19T13:10:45Z</time>
      </trkpt>
      <trkpt lat="42.94857" lon="0.71324">
        <ele>1562.7602539</ele>
        <time>2009-05-19T13:10:58Z</time>
      </trkpt>
      <trkpt lat="42.9485" lon="0.71323">
        <ele>1559.395752</ele>
        <time>2009-05-19T13:11:10Z</time>
      </trkpt>
      <trkpt lat="42.94845" lon="0.71321">
        <ele>1556.9924316</ele>
        <time>2009-05-19T13:11:24Z</time>
      </trkpt>
      <trkpt lat="42.94845" lon="0.71321">
        <ele>1556.5117188</ele>
        <time>2009-05-19T13:11:46Z</time>
      </trkpt>
      <trkpt lat="42.9484" lon="0.71318">
        <ele>1554.5891113</ele>
        <time>2009-05-19T13:11:58Z</time>
      </trkpt>
      <trkpt lat="42.94835" lon="0.71325">
        <ele>1552.185791</ele>
        <time>2009-05-19T13:12:11Z</time>
      </trkpt>
      <trkpt lat="42.94831" lon="0.71325">
        <ele>1550.7438965</ele>
        <time>2009-05-19T13:12:15Z</time>
      </trkpt>
      <trkpt lat="42.94819" lon="0.7133">
        <ele>1544.0146484</ele>
        <time>2009-05-19T13:12:30Z</time>
      </trkpt>
      <trkpt lat="42.94813" lon="0.71336">
        <ele>1541.1306152</ele>
        <time>2009-05-19T13:12:40Z</time>
      </trkpt>
      <trkpt lat="42.94807" lon="0.71343">
        <ele>1537.7661133</ele>
        <time>2009-05-19T13:12:52Z</time>
      </trkpt>
      <trkpt lat="42.94796" lon="0.71338">
        <ele>1532.9594727</ele>
        <time>2009-05-19T13:13:08Z</time>
      </trkpt>
      <trkpt lat="42.94795" lon="0.71339">
        <ele>1531.9980469</ele>
        <time>2009-05-19T13:13:10Z</time>
      </trkpt>
      <trkpt lat="42.94787" lon="0.71338">
        <ele>1529.5947266</ele>
        <time>2009-05-19T13:13:22Z</time>
      </trkpt>
      <trkpt lat="42.94779" lon="0.71344">
        <ele>1525.7495117</ele>
        <time>2009-05-19T13:13:34Z</time>
      </trkpt>
      <trkpt lat="42.94776" lon="0.71344">
        <ele>1524.7883301</ele>
        <time>2009-05-19T13:13:37Z</time>
      </trkpt>
      <trkpt lat="42.94764" lon="0.71349">
        <ele>1521.423584</ele>
        <time>2009-05-19T13:13:50Z</time>
      </trkpt>
      <trkpt lat="42.94757" lon="0.71355">
        <ele>1520.4624023</ele>
        <time>2009-05-19T13:13:58Z</time>
      </trkpt>
      <trkpt lat="42.94749" lon="0.71364">
        <ele>1516.6171875</ele>
        <time>2009-05-19T13:14:10Z</time>
      </trkpt>
      <trkpt lat="42.94735" lon="0.71389">
        <ele>1511.8105469</ele>
        <time>2009-05-19T13:14:30Z</time>
      </trkpt>
      <trkpt lat="42.94731" lon="0.71396">
        <ele>1510.3684082</ele>
        <time>2009-05-19T13:14:36Z</time>
      </trkpt>
      <trkpt lat="42.94727" lon="0.71404">
        <ele>1510.8491211</ele>
        <time>2009-05-19T13:14:48Z</time>
      </trkpt>
      <trkpt lat="42.94721" lon="0.71417">
        <ele>1512.7717285</ele>
        <time>2009-05-19T13:15:04Z</time>
      </trkpt>
      <trkpt lat="42.94716" lon="0.71428">
        <ele>1513.7329102</ele>
        <time>2009-05-19T13:15:14Z</time>
      </trkpt>
      <trkpt lat="42.94708" lon="0.71441">
        <ele>1514.213623</ele>
        <time>2009-05-19T13:15:30Z</time>
      </trkpt>
      <trkpt lat="42.94705" lon="0.71445">
        <ele>1512.7717285</ele>
        <time>2009-05-19T13:15:36Z</time>
      </trkpt>
      <trkpt lat="42.947" lon="0.71462">
        <ele>1511.8105469</ele>
        <time>2009-05-19T13:15:53Z</time>
      </trkpt>
      <trkpt lat="42.94696" lon="0.71482">
        <ele>1510.3684082</ele>
        <time>2009-05-19T13:16:10Z</time>
      </trkpt>
      <trkpt lat="42.94689" lon="0.71497">
        <ele>1508.9265137</ele>
        <time>2009-05-19T13:16:24Z</time>
      </trkpt>
      <trkpt lat="42.94683" lon="0.71509">
        <ele>1507.4846191</ele>
        <time>2009-05-19T13:16:39Z</time>
      </trkpt>
      <trkpt lat="42.94675" lon="0.71522">
        <ele>1506.0424805</ele>
        <time>2009-05-19T13:16:54Z</time>
      </trkpt>
      <trkpt lat="42.94667" lon="0.7154">
        <ele>1505.5620117</ele>
        <time>2009-05-19T13:17:10Z</time>
      </trkpt>
      <trkpt lat="42.94663" lon="0.7155">
        <ele>1505.5620117</ele>
        <time>2009-05-19T13:17:19Z</time>
      </trkpt>
      <trkpt lat="42.94654" lon="0.71566">
        <ele>1503.6394043</ele>
        <time>2009-05-19T13:17:35Z</time>
      </trkpt>
      <trkpt lat="42.94641" lon="0.71585">
        <ele>1503.1586914</ele>
        <time>2009-05-19T13:17:53Z</time>
      </trkpt>
      <trkpt lat="42.94638" lon="0.71601">
        <ele>1501.7167969</ele>
        <time>2009-05-19T13:18:10Z</time>
      </trkpt>
      <trkpt lat="42.94638" lon="0.71603">
        <ele>1501.236084</ele>
        <time>2009-05-19T13:18:11Z</time>
      </trkpt>
      <trkpt lat="42.94635" lon="0.71629">
        <ele>1496.9099121</ele>
        <time>2009-05-19T13:18:27Z</time>
      </trkpt>
      <trkpt lat="42.94633" lon="0.71646">
        <ele>1497.8713379</ele>
        <time>2009-05-19T13:18:41Z</time>
      </trkpt>
      <trkpt lat="42.94634" lon="0.71654">
        <ele>1501.236084</ele>
        <time>2009-05-19T13:18:54Z</time>
      </trkpt>
      <trkpt lat="42.94632" lon="0.71669">
        <ele>1498.3518066</ele>
        <time>2009-05-19T13:19:06Z</time>
      </trkpt>
      <trkpt lat="42.94629" lon="0.71692">
        <ele>1501.7167969</ele>
        <time>2009-05-19T13:19:20Z</time>
      </trkpt>
      <trkpt lat="42.94625" lon="0.71708">
        <ele>1502.6779785</ele>
        <time>2009-05-19T13:19:30Z</time>
      </trkpt>
      <trkpt lat="42.9462" lon="0.71727">
        <ele>1502.6779785</ele>
        <time>2009-05-19T13:19:45Z</time>
      </trkpt>
      <trkpt lat="42.94614" lon="0.71738">
        <ele>1500.7553711</ele>
        <time>2009-05-19T13:20:01Z</time>
      </trkpt>
      <trkpt lat="42.94612" lon="0.71759">
        <ele>1503.6394043</ele>
        <time>2009-05-19T13:20:17Z</time>
      </trkpt>
      <trkpt lat="42.94608" lon="0.71772">
        <ele>1505.0812988</ele>
        <time>2009-05-19T13:20:30Z</time>
      </trkpt>
      <trkpt lat="42.94603" lon="0.71784">
        <ele>1505.0812988</ele>
        <time>2009-05-19T13:20:47Z</time>
      </trkpt>
      <trkpt lat="42.94599" lon="0.71793">
        <ele>1500.7553711</ele>
        <time>2009-05-19T13:20:57Z</time>
      </trkpt>
      <trkpt lat="42.94596" lon="0.71807">
        <ele>1500.7553711</ele>
        <time>2009-05-19T13:21:10Z</time>
      </trkpt>
      <trkpt lat="42.94586" lon="0.71819">
        <ele>1500.2749023</ele>
        <time>2009-05-19T13:21:21Z</time>
      </trkpt>
      <trkpt lat="42.94583" lon="0.71831">
        <ele>1504.1201172</ele>
        <time>2009-05-19T13:21:32Z</time>
      </trkpt>
      <trkpt lat="42.94581" lon="0.7184">
        <ele>1501.236084</ele>
        <time>2009-05-19T13:21:43Z</time>
      </trkpt>
      <trkpt lat="42.94579" lon="0.71853">
        <ele>1498.8325195</ele>
        <time>2009-05-19T13:21:56Z</time>
      </trkpt>
      <trkpt lat="42.94572" lon="0.71859">
        <ele>1497.390625</ele>
        <time>2009-05-19T13:22:06Z</time>
      </trkpt>
      <trkpt lat="42.94567" lon="0.71863">
        <ele>1499.7939453</ele>
        <time>2009-05-19T13:22:17Z</time>
      </trkpt>
      <trkpt lat="42.9456" lon="0.71879">
        <ele>1506.0424805</ele>
        <time>2009-05-19T13:22:31Z</time>
      </trkpt>
      <trkpt lat="42.94562" lon="0.7188">
        <ele>1509.4072266</ele>
        <time>2009-05-19T13:22:43Z</time>
      </trkpt>
      <trkpt lat="42.94556" lon="0.71887">
        <ele>1509.8876953</ele>
        <time>2009-05-19T13:22:55Z</time>
      </trkpt>
      <trkpt lat="42.9455" lon="0.71895">
        <ele>1508.4458008</ele>
        <time>2009-05-19T13:23:07Z</time>
      </trkpt>
      <trkpt lat="42.94543" lon="0.71904">
        <ele>1507.965332</ele>
        <time>2009-05-19T13:23:23Z</time>
      </trkpt>
      <trkpt lat="42.94535" lon="0.71909">
        <ele>1508.9265137</ele>
        <time>2009-05-19T13:23:37Z</time>
      </trkpt>
      <trkpt lat="42.94529" lon="0.71917">
        <ele>1511.8105469</ele>
        <time>2009-05-19T13:23:52Z</time>
      </trkpt>
      <trkpt lat="42.94522" lon="0.71926">
        <ele>1513.2524414</ele>
        <time>2009-05-19T13:24:06Z</time>
      </trkpt>
      <trkpt lat="42.94515" lon="0.71937">
        <ele>1516.6171875</ele>
        <time>2009-05-19T13:24:23Z</time>
      </trkpt>
      <trkpt lat="42.9451" lon="0.71937">
        <ele>1519.9816895</ele>
        <time>2009-05-19T13:24:41Z</time>
      </trkpt>
      <trkpt lat="42.945" lon="0.71937">
        <ele>1520.4624023</ele>
        <time>2009-05-19T13:25:26Z</time>
      </trkpt>
      <trkpt lat="42.94508" lon="0.71936">
        <ele>1522.3850098</ele>
        <time>2009-05-19T13:25:57Z</time>
      </trkpt>
      <trkpt lat="42.94516" lon="0.71939">
        <ele>1518.059082</ele>
        <time>2009-05-19T13:26:23Z</time>
      </trkpt>
      <trkpt lat="42.94512" lon="0.71946">
        <ele>1515.1750488</ele>
        <time>2009-05-19T13:26:37Z</time>
      </trkpt>
      <trkpt lat="42.94503" lon="0.71958">
        <ele>1511.329834</ele>
        <time>2009-05-19T13:26:52Z</time>
      </trkpt>
      <trkpt lat="42.94493" lon="0.71965">
        <ele>1510.3684082</ele>
        <time>2009-05-19T13:27:07Z</time>
      </trkpt>
      <trkpt lat="42.94486" lon="0.71969">
        <ele>1508.9265137</ele>
        <time>2009-05-19T13:27:21Z</time>
      </trkpt>
      <trkpt lat="42.94479" lon="0.71972">
        <ele>1507.0039063</ele>
        <time>2009-05-19T13:27:34Z</time>
      </trkpt>
      <trkpt lat="42.94477" lon="0.71972">
        <ele>1506.5231934</ele>
        <time>2009-05-19T13:27:38Z</time>
      </trkpt>
      <trkpt lat="42.94473" lon="0.71981">
        <ele>1501.7167969</ele>
        <time>2009-05-19T13:27:50Z</time>
      </trkpt>
      <trkpt lat="42.94474" lon="0.71984">
        <ele>1498.3518066</ele>
        <time>2009-05-19T13:28:00Z</time>
      </trkpt>
      <trkpt lat="42.94473" lon="0.71982">
        <ele>1496.9099121</ele>
        <time>2009-05-19T13:28:11Z</time>
      </trkpt>
      <trkpt lat="42.94473" lon="0.71984">
        <ele>1494.026123</ele>
        <time>2009-05-19T13:28:38Z</time>
      </trkpt>
      <trkpt lat="42.94475" lon="0.71989">
        <ele>1494.5065918</ele>
        <time>2009-05-19T13:28:52Z</time>
      </trkpt>
      <trkpt lat="42.94474" lon="0.71996">
        <ele>1491.1420898</ele>
        <time>2009-05-19T13:29:06Z</time>
      </trkpt>
      <trkpt lat="42.94471" lon="0.72003">
        <ele>1493.5454102</ele>
        <time>2009-05-19T13:29:25Z</time>
      </trkpt>
      <trkpt lat="42.9446" lon="0.72014">
        <ele>1487.7775879</ele>
        <time>2009-05-19T13:29:41Z</time>
      </trkpt>
      <trkpt lat="42.94455" lon="0.72026">
        <ele>1485.8549805</ele>
        <time>2009-05-19T13:29:55Z</time>
      </trkpt>
      <trkpt lat="42.94458" lon="0.72038">
        <ele>1484.4130859</ele>
        <time>2009-05-19T13:30:09Z</time>
      </trkpt>
      <trkpt lat="42.94455" lon="0.72046">
        <ele>1481.5288086</ele>
        <time>2009-05-19T13:30:22Z</time>
      </trkpt>
      <trkpt lat="42.94452" lon="0.72048">
        <ele>1480.0869141</ele>
        <time>2009-05-19T13:30:28Z</time>
      </trkpt>
      <trkpt lat="42.94448" lon="0.72052">
        <ele>1478.1643066</ele>
        <time>2009-05-19T13:30:37Z</time>
      </trkpt>
      <trkpt lat="42.94442" lon="0.72043">
        <ele>1478.1643066</ele>
        <time>2009-05-19T13:30:49Z</time>
      </trkpt>
      <trkpt lat="42.94438" lon="0.72037">
        <ele>1477.203125</ele>
        <time>2009-05-19T13:31:02Z</time>
      </trkpt>
      <trkpt lat="42.94435" lon="0.72032">
        <ele>1476.2416992</ele>
        <time>2009-05-19T13:31:09Z</time>
      </trkpt>
      <trkpt lat="42.94427" lon="0.72019">
        <ele>1477.6835938</ele>
        <time>2009-05-19T13:31:22Z</time>
      </trkpt>
      <trkpt lat="42.94418" lon="0.72017">
        <ele>1472.8771973</ele>
        <time>2009-05-19T13:31:36Z</time>
      </trkpt>
      <trkpt lat="42.94416" lon="0.72016">
        <ele>1471.9157715</ele>
        <time>2009-05-19T13:31:39Z</time>
      </trkpt>
      <trkpt lat="42.94407" lon="0.72013">
        <ele>1467.1091309</ele>
        <time>2009-05-19T13:31:51Z</time>
      </trkpt>
      <trkpt lat="42.94397" lon="0.72009">
        <ele>1461.3413086</ele>
        <time>2009-05-19T13:32:00Z</time>
      </trkpt>
      <trkpt lat="42.94386" lon="0.72012">
        <ele>1461.3413086</ele>
        <time>2009-05-19T13:32:14Z</time>
      </trkpt>
      <trkpt lat="42.94382" lon="0.72011">
        <ele>1461.3413086</ele>
        <time>2009-05-19T13:32:23Z</time>
      </trkpt>
      <trkpt lat="42.94373" lon="0.72004">
        <ele>1461.3413086</ele>
        <time>2009-05-19T13:32:37Z</time>
      </trkpt>
      <trkpt lat="42.94361" lon="0.72">
        <ele>1457.9768066</ele>
        <time>2009-05-19T13:32:51Z</time>
      </trkpt>
      <trkpt lat="42.94355" lon="0.71997">
        <ele>1458.4572754</ele>
        <time>2009-05-19T13:32:59Z</time>
      </trkpt>
      <trkpt lat="42.94343" lon="0.7199">
        <ele>1453.170166</ele>
        <time>2009-05-19T13:33:12Z</time>
      </trkpt>
      <trkpt lat="42.94331" lon="0.71978">
        <ele>1445.9602051</ele>
        <time>2009-05-19T13:33:27Z</time>
      </trkpt>
      <trkpt lat="42.94324" lon="0.71975">
        <ele>1444.0375977</ele>
        <time>2009-05-19T13:33:41Z</time>
      </trkpt>
      <trkpt lat="42.94322" lon="0.71973">
        <ele>1443.5568848</ele>
        <time>2009-05-19T13:33:43Z</time>
      </trkpt>
      <trkpt lat="42.9431" lon="0.7197">
        <ele>1437.7890625</ele>
        <time>2009-05-19T13:33:58Z</time>
      </trkpt>
      <trkpt lat="42.94301" lon="0.71969">
        <ele>1436.347168</ele>
        <time>2009-05-19T13:34:11Z</time>
      </trkpt>
      <trkpt lat="42.94294" lon="0.7197">
        <ele>1433.4628906</ele>
        <time>2009-05-19T13:34:25Z</time>
      </trkpt>
      <trkpt lat="42.94293" lon="0.7197">
        <ele>1432.9821777</ele>
        <time>2009-05-19T13:34:26Z</time>
      </trkpt>
      <trkpt lat="42.94288" lon="0.7197">
        <ele>1429.1369629</ele>
        <time>2009-05-19T13:34:42Z</time>
      </trkpt>
      <trkpt lat="42.94281" lon="0.71965">
        <ele>1420.9660645</ele>
        <time>2009-05-19T13:35:05Z</time>
      </trkpt>
      <trkpt lat="42.94282" lon="0.7197">
        <ele>1424.8112793</ele>
        <time>2009-05-19T13:35:34Z</time>
      </trkpt>
      <trkpt lat="42.94281" lon="0.71969">
        <ele>1429.1369629</ele>
        <time>2009-05-19T13:36:14Z</time>
      </trkpt>
      <trkpt lat="42.94287" lon="0.71965">
        <ele>1424.8112793</ele>
        <time>2009-05-19T13:36:41Z</time>
      </trkpt>
      <trkpt lat="42.94279" lon="0.71968">
        <ele>1422.407959</ele>
        <time>2009-05-19T13:36:53Z</time>
      </trkpt>
      <trkpt lat="42.9427" lon="0.71972">
        <ele>1419.0432129</ele>
        <time>2009-05-19T13:37:03Z</time>
      </trkpt>
      <trkpt lat="42.94257" lon="0.71972">
        <ele>1420.9660645</ele>
        <time>2009-05-19T13:37:17Z</time>
      </trkpt>
      <trkpt lat="42.94251" lon="0.71971">
        <ele>1419.5239258</ele>
        <time>2009-05-19T13:37:29Z</time>
      </trkpt>
      <trkpt lat="42.9424" lon="0.71973">
        <ele>1416.6398926</ele>
        <time>2009-05-19T13:37:40Z</time>
      </trkpt>
      <trkpt lat="42.94235" lon="0.71975">
        <ele>1411.3527832</ele>
        <time>2009-05-19T13:37:46Z</time>
      </trkpt>
      <trkpt lat="42.94226" lon="0.71977">
        <ele>1410.3913574</ele>
        <time>2009-05-19T13:37:55Z</time>
      </trkpt>
      <trkpt lat="42.94208" lon="0.71981">
        <ele>1405.104248</ele>
        <time>2009-05-19T13:38:07Z</time>
      </trkpt>
      <trkpt lat="42.94201" lon="0.71983">
        <ele>1400.2976074</ele>
        <time>2009-05-19T13:38:12Z</time>
      </trkpt>
      <trkpt lat="42.94192" lon="0.71991">
        <ele>1390.6843262</ele>
        <time>2009-05-19T13:38:24Z</time>
      </trkpt>
      <trkpt lat="42.94187" lon="0.71991">
        <ele>1385.8776855</ele>
        <time>2009-05-19T13:38:38Z</time>
      </trkpt>
      <trkpt lat="42.94177" lon="0.71996">
        <ele>1382.9936523</ele>
        <time>2009-05-19T13:38:58Z</time>
      </trkpt>
      <trkpt lat="42.94167" lon="0.72001">
        <ele>1380.5905762</ele>
        <time>2009-05-19T13:39:12Z</time>
      </trkpt>
      <trkpt lat="42.94158" lon="0.72004">
        <ele>1379.6291504</ele>
        <time>2009-05-19T13:39:24Z</time>
      </trkpt>
      <trkpt lat="42.94147" lon="0.72015">
        <ele>1373.3808594</ele>
        <time>2009-05-19T13:39:40Z</time>
      </trkpt>
      <trkpt lat="42.94141" lon="0.72018">
        <ele>1372.4194336</ele>
        <time>2009-05-19T13:39:55Z</time>
      </trkpt>
      <trkpt lat="42.9414" lon="0.7202">
        <ele>1372.4194336</ele>
        <time>2009-05-19T13:40:00Z</time>
      </trkpt>
      <trkpt lat="42.94138" lon="0.7202">
        <ele>1370.9772949</ele>
        <time>2009-05-19T13:40:03Z</time>
      </trkpt>
      <trkpt lat="42.94134" lon="0.72023">
        <ele>1364.7287598</ele>
        <time>2009-05-19T13:40:20Z</time>
      </trkpt>
      <trkpt lat="42.94134" lon="0.72025">
        <ele>1363.767334</ele>
        <time>2009-05-19T13:40:34Z</time>
      </trkpt>
      <trkpt lat="42.94135" lon="0.72024">
        <ele>1363.767334</ele>
        <time>2009-05-19T13:41:13Z</time>
      </trkpt>
      <trkpt lat="42.94126" lon="0.72035">
        <ele>1361.8449707</ele>
        <time>2009-05-19T13:41:34Z</time>
      </trkpt>
      <trkpt lat="42.94126" lon="0.72037">
        <ele>1361.8449707</ele>
        <time>2009-05-19T13:41:35Z</time>
      </trkpt>
      <trkpt lat="42.9412" lon="0.72045">
        <ele>1359.4416504</ele>
        <time>2009-05-19T13:41:41Z</time>
      </trkpt>
      <trkpt lat="42.94115" lon="0.72059">
        <ele>1356.0769043</ele>
        <time>2009-05-19T13:41:48Z</time>
      </trkpt>
      <trkpt lat="42.94113" lon="0.72071">
        <ele>1355.5961914</ele>
        <time>2009-05-19T13:41:55Z</time>
      </trkpt>
      <trkpt lat="42.9411" lon="0.72084">
        <ele>1353.1928711</ele>
        <time>2009-05-19T13:42:02Z</time>
      </trkpt>
      <trkpt lat="42.94111" lon="0.7209">
        <ele>1352.7121582</ele>
        <time>2009-05-19T13:42:05Z</time>
      </trkpt>
      <trkpt lat="42.94119" lon="0.72117">
        <ele>1346.4638672</ele>
        <time>2009-05-19T13:42:18Z</time>
      </trkpt>
      <trkpt lat="42.9413" lon="0.72141">
        <ele>1341.1765137</ele>
        <time>2009-05-19T13:42:32Z</time>
      </trkpt>
      <trkpt lat="42.94147" lon="0.72166">
        <ele>1340.215332</ele>
        <time>2009-05-19T13:42:51Z</time>
      </trkpt>
      <trkpt lat="42.94151" lon="0.72172">
        <ele>1339.2536621</ele>
        <time>2009-05-19T13:42:59Z</time>
      </trkpt>
      <trkpt lat="42.94153" lon="0.72174">
        <ele>1339.2536621</ele>
        <time>2009-05-19T13:43:02Z</time>
      </trkpt>
      <trkpt lat="42.94157" lon="0.72178">
        <ele>1338.2924805</ele>
        <time>2009-05-19T13:43:07Z</time>
      </trkpt>
      <trkpt lat="42.94161" lon="0.72183">
        <ele>1336.369873</ele>
        <time>2009-05-19T13:43:24Z</time>
      </trkpt>
      <trkpt lat="42.94154" lon="0.72181">
        <ele>1339.734375</ele>
        <time>2009-05-19T13:43:41Z</time>
      </trkpt>
      <trkpt lat="42.94142" lon="0.72186">
        <ele>1335.4084473</ele>
        <time>2009-05-19T13:44:39Z</time>
      </trkpt>
      <trkpt lat="42.94132" lon="0.72182">
        <ele>1335.8891602</ele>
        <time>2009-05-19T13:44:56Z</time>
      </trkpt>
      <trkpt lat="42.94126" lon="0.72179">
        <ele>1337.3310547</ele>
        <time>2009-05-19T13:45:14Z</time>
      </trkpt>
      <trkpt lat="42.94127" lon="0.72178">
        <ele>1335.8891602</ele>
        <time>2009-05-19T13:45:39Z</time>
      </trkpt>
      <trkpt lat="42.94124" lon="0.72166">
        <ele>1334.4472656</ele>
        <time>2009-05-19T13:45:56Z</time>
      </trkpt>
      <trkpt lat="42.94121" lon="0.72155">
        <ele>1334.9279785</ele>
        <time>2009-05-19T13:46:09Z</time>
      </trkpt>
      <trkpt lat="42.94118" lon="0.7214">
        <ele>1336.8503418</ele>
        <time>2009-05-19T13:46:24Z</time>
      </trkpt>
      <trkpt lat="42.94111" lon="0.72126">
        <ele>1341.6572266</ele>
        <time>2009-05-19T13:46:44Z</time>
      </trkpt>
      <trkpt lat="42.94109" lon="0.72124">
        <ele>1341.6572266</ele>
        <time>2009-05-19T13:46:57Z</time>
      </trkpt>
      <trkpt lat="42.94103" lon="0.72112">
        <ele>1345.0217285</ele>
        <time>2009-05-19T13:47:16Z</time>
      </trkpt>
      <trkpt lat="42.94096" lon="0.72097">
        <ele>1347.9057617</ele>
        <time>2009-05-19T13:47:33Z</time>
      </trkpt>
      <trkpt lat="42.94088" lon="0.72087">
        <ele>1349.3476563</ele>
        <time>2009-05-19T13:47:49Z</time>
      </trkpt>
      <trkpt lat="42.94079" lon="0.72091">
        <ele>1349.3476563</ele>
        <time>2009-05-19T13:48:05Z</time>
      </trkpt>
      <trkpt lat="42.94068" lon="0.72103">
        <ele>1345.9831543</ele>
        <time>2009-05-19T13:48:24Z</time>
      </trkpt>
      <trkpt lat="42.94066" lon="0.72102">
        <ele>1344.5410156</ele>
        <time>2009-05-19T13:48:47Z</time>
      </trkpt>
      <trkpt lat="42.94067" lon="0.72103">
        <ele>1344.5410156</ele>
        <time>2009-05-19T13:49:01Z</time>
      </trkpt>
      <trkpt lat="42.94064" lon="0.72102">
        <ele>1343.579834</ele>
        <time>2009-05-19T13:49:17Z</time>
      </trkpt>
      <trkpt lat="42.94061" lon="0.72106">
        <ele>1341.6572266</ele>
        <time>2009-05-19T13:49:34Z</time>
      </trkpt>
      <trkpt lat="42.94053" lon="0.72109">
        <ele>1339.734375</ele>
        <time>2009-05-19T13:49:51Z</time>
      </trkpt>
      <trkpt lat="42.94053" lon="0.72109">
        <ele>1338.7731934</ele>
        <time>2009-05-19T13:50:22Z</time>
      </trkpt>
      <trkpt lat="42.94046" lon="0.72111">
        <ele>1338.7731934</ele>
        <time>2009-05-19T13:50:39Z</time>
      </trkpt>
      <trkpt lat="42.94037" lon="0.72118">
        <ele>1335.4084473</ele>
        <time>2009-05-19T13:50:54Z</time>
      </trkpt>
      <trkpt lat="42.94035" lon="0.72118">
        <ele>1334.4472656</ele>
        <time>2009-05-19T13:50:57Z</time>
      </trkpt>
      <trkpt lat="42.94029" lon="0.72122">
        <ele>1332.5246582</ele>
        <time>2009-05-19T13:51:06Z</time>
      </trkpt>
      <trkpt lat="42.94016" lon="0.72128">
        <ele>1328.1987305</ele>
        <time>2009-05-19T13:51:18Z</time>
      </trkpt>
      <trkpt lat="42.94012" lon="0.72129">
        <ele>1328.1987305</ele>
        <time>2009-05-19T13:51:22Z</time>
      </trkpt>
      <trkpt lat="42.94008" lon="0.72129">
        <ele>1328.1987305</ele>
        <time>2009-05-19T13:51:26Z</time>
      </trkpt>
      <trkpt lat="42.94007" lon="0.72131">
        <ele>1327.7180176</ele>
        <time>2009-05-19T13:51:28Z</time>
      </trkpt>
      <trkpt lat="42.93996" lon="0.72132">
        <ele>1333.4858398</ele>
        <time>2009-05-19T13:51:41Z</time>
      </trkpt>
      <trkpt lat="42.93989" lon="0.72134">
        <ele>1336.369873</ele>
        <time>2009-05-19T13:52:18Z</time>
      </trkpt>
      <trkpt lat="42.93986" lon="0.72133">
        <ele>1334.9279785</ele>
        <time>2009-05-19T13:52:21Z</time>
      </trkpt>
      <trkpt lat="42.93972" lon="0.72129">
        <ele>1333.005127</ele>
        <time>2009-05-19T13:52:35Z</time>
      </trkpt>
      <trkpt lat="42.93968" lon="0.72131">
        <ele>1329.640625</ele>
        <time>2009-05-19T13:52:42Z</time>
      </trkpt>
      <trkpt lat="42.93958" lon="0.72147">
        <ele>1321.9499512</ele>
        <time>2009-05-19T13:52:57Z</time>
      </trkpt>
      <trkpt lat="42.93946" lon="0.72154">
        <ele>1320.5080566</ele>
        <time>2009-05-19T13:53:11Z</time>
      </trkpt>
      <trkpt lat="42.9394" lon="0.7216">
        <ele>1315.7016602</ele>
        <time>2009-05-19T13:53:24Z</time>
      </trkpt>
      <trkpt lat="42.93937" lon="0.72161">
        <ele>1314.7402344</ele>
        <time>2009-05-19T13:53:27Z</time>
      </trkpt>
      <trkpt lat="42.9392" lon="0.72168">
        <ele>1309.9335938</ele>
        <time>2009-05-19T13:53:44Z</time>
      </trkpt>
      <trkpt lat="42.93908" lon="0.72173">
        <ele>1307.0495605</ele>
        <time>2009-05-19T13:53:55Z</time>
      </trkpt>
      <trkpt lat="42.93897" lon="0.72178">
        <ele>1304.6462402</ele>
        <time>2009-05-19T13:54:08Z</time>
      </trkpt>
      <trkpt lat="42.93878" lon="0.72186">
        <ele>1302.7236328</ele>
        <time>2009-05-19T13:54:22Z</time>
      </trkpt>
      <trkpt lat="42.93871" lon="0.72185">
        <ele>1305.1269531</ele>
        <time>2009-05-19T13:54:26Z</time>
      </trkpt>
      <trkpt lat="42.93868" lon="0.72177">
        <ele>1315.2209473</ele>
        <time>2009-05-19T13:54:31Z</time>
      </trkpt>
      <trkpt lat="42.93866" lon="0.72166">
        <ele>1325.7954102</ele>
        <time>2009-05-19T13:54:37Z</time>
      </trkpt>
      <trkpt lat="42.93864" lon="0.72158">
        <ele>1332.0439453</ele>
        <time>2009-05-19T13:54:44Z</time>
      </trkpt>
      <trkpt lat="42.93858" lon="0.72151">
        <ele>1329.640625</ele>
        <time>2009-05-19T13:54:49Z</time>
      </trkpt>
      <trkpt lat="42.93856" lon="0.72143">
        <ele>1330.6020508</ele>
        <time>2009-05-19T13:54:52Z</time>
      </trkpt>
      <trkpt lat="42.9385" lon="0.72132">
        <ele>1324.3535156</ele>
        <time>2009-05-19T13:54:59Z</time>
      </trkpt>
      <trkpt lat="42.93848" lon="0.72129">
        <ele>1325.7954102</ele>
        <time>2009-05-19T13:55:01Z</time>
      </trkpt>
      <trkpt lat="42.93833" lon="0.72118">
        <ele>1311.3757324</ele>
        <time>2009-05-19T13:55:12Z</time>
      </trkpt>
      <trkpt lat="42.9382" lon="0.72108">
        <ele>1303.6850586</ele>
        <time>2009-05-19T13:55:22Z</time>
      </trkpt>
      <trkpt lat="42.93803" lon="0.72098">
        <ele>1293.1105957</ele>
        <time>2009-05-19T13:55:34Z</time>
      </trkpt>
      <trkpt lat="42.93795" lon="0.72093">
        <ele>1299.3591309</ele>
        <time>2009-05-19T13:55:41Z</time>
      </trkpt>
      <trkpt lat="42.93787" lon="0.7208">
        <ele>1302.7236328</ele>
        <time>2009-05-19T13:55:51Z</time>
      </trkpt>
      <trkpt lat="42.93778" lon="0.72075">
        <ele>1301.7624512</ele>
        <time>2009-05-19T13:55:58Z</time>
      </trkpt>
      <trkpt lat="42.93773" lon="0.72067">
        <ele>1291.668457</ele>
        <time>2009-05-19T13:56:13Z</time>
      </trkpt>
      <trkpt lat="42.9378" lon="0.72069">
        <ele>1282.5361328</ele>
        <time>2009-05-19T13:56:21Z</time>
      </trkpt>
      <trkpt lat="42.93791" lon="0.72067">
        <ele>1279.1713867</ele>
        <time>2009-05-19T13:56:33Z</time>
      </trkpt>
      <trkpt lat="42.93794" lon="0.72066">
        <ele>1279.1713867</ele>
        <time>2009-05-19T13:56:35Z</time>
      </trkpt>
      <trkpt lat="42.93808" lon="0.72058">
        <ele>1278.690918</ele>
        <time>2009-05-19T13:56:42Z</time>
      </trkpt>
      <trkpt lat="42.93817" lon="0.72059">
        <ele>1276.2875977</ele>
        <time>2009-05-19T13:56:46Z</time>
      </trkpt>
      <trkpt lat="42.93831" lon="0.72062">
        <ele>1271.4807129</ele>
        <time>2009-05-19T13:56:58Z</time>
      </trkpt>
      <trkpt lat="42.93846" lon="0.72065">
        <ele>1269.0776367</ele>
        <time>2009-05-19T13:57:12Z</time>
      </trkpt>
      <trkpt lat="42.93847" lon="0.72067">
        <ele>1268.1162109</ele>
        <time>2009-05-19T13:57:13Z</time>
      </trkpt>
      <trkpt lat="42.93862" lon="0.72079">
        <ele>1256.5803223</ele>
        <time>2009-05-19T13:57:27Z</time>
      </trkpt>
      <trkpt lat="42.93869" lon="0.72078">
        <ele>1254.1772461</ele>
        <time>2009-05-19T13:57:36Z</time>
      </trkpt>
      <trkpt lat="42.93879" lon="0.72075">
        <ele>1249.8513184</ele>
        <time>2009-05-19T13:57:49Z</time>
      </trkpt>
      <trkpt lat="42.93881" lon="0.72071">
        <ele>1252.7351074</ele>
        <time>2009-05-19T13:57:51Z</time>
      </trkpt>
      <trkpt lat="42.93887" lon="0.72065">
        <ele>1251.7739258</ele>
        <time>2009-05-19T13:57:57Z</time>
      </trkpt>
      <trkpt lat="42.93891" lon="0.72064">
        <ele>1251.7739258</ele>
        <time>2009-05-19T13:58:00Z</time>
      </trkpt>
      <trkpt lat="42.939" lon="0.72054">
        <ele>1253.2158203</ele>
        <time>2009-05-19T13:58:11Z</time>
      </trkpt>
      <trkpt lat="42.93906" lon="0.72044">
        <ele>1251.2932129</ele>
        <time>2009-05-19T13:58:21Z</time>
      </trkpt>
      <trkpt lat="42.93916" lon="0.7203">
        <ele>1243.1218262</ele>
        <time>2009-05-19T13:58:34Z</time>
      </trkpt>
      <trkpt lat="42.93922" lon="0.72019">
        <ele>1248.4091797</ele>
        <time>2009-05-19T13:58:46Z</time>
      </trkpt>
      <trkpt lat="42.93923" lon="0.72015">
        <ele>1249.3706055</ele>
        <time>2009-05-19T13:58:49Z</time>
      </trkpt>
      <trkpt lat="42.93931" lon="0.71999">
        <ele>1252.2543945</ele>
        <time>2009-05-19T13:59:01Z</time>
      </trkpt>
      <trkpt lat="42.93934" lon="0.71988">
        <ele>1241.1992188</ele>
        <time>2009-05-19T13:59:13Z</time>
      </trkpt>
      <trkpt lat="42.93936" lon="0.71978">
        <ele>1237.8347168</ele>
        <time>2009-05-19T13:59:21Z</time>
      </trkpt>
      <trkpt lat="42.93936" lon="0.71971">
        <ele>1237.3540039</ele>
        <time>2009-05-19T13:59:27Z</time>
      </trkpt>
      <trkpt lat="42.93934" lon="0.71959">
        <ele>1227.7407227</ele>
        <time>2009-05-19T13:59:41Z</time>
      </trkpt>
      <trkpt lat="42.93935" lon="0.71947">
        <ele>1230.1442871</ele>
        <time>2009-05-19T13:59:52Z</time>
      </trkpt>
      <trkpt lat="42.93938" lon="0.71936">
        <ele>1232.5476074</ele>
        <time>2009-05-19T14:00:04Z</time>
      </trkpt>
      <trkpt lat="42.93938" lon="0.71935">
        <ele>1233.0280762</ele>
        <time>2009-05-19T14:00:05Z</time>
      </trkpt>
      <trkpt lat="42.93939" lon="0.71927">
        <ele>1234.4702148</ele>
        <time>2009-05-19T14:00:12Z</time>
      </trkpt>
      <trkpt lat="42.93943" lon="0.71914">
        <ele>1220.5310059</ele>
        <time>2009-05-19T14:00:24Z</time>
      </trkpt>
      <trkpt lat="42.93948" lon="0.71903">
        <ele>1216.2050781</ele>
        <time>2009-05-19T14:00:37Z</time>
      </trkpt>
      <trkpt lat="42.93949" lon="0.71902">
        <ele>1217.1665039</ele>
        <time>2009-05-19T14:00:38Z</time>
      </trkpt>
      <trkpt lat="42.93953" lon="0.71885">
        <ele>1226.2988281</ele>
        <time>2009-05-19T14:00:55Z</time>
      </trkpt>
      <trkpt lat="42.93955" lon="0.71875">
        <ele>1228.2216797</ele>
        <time>2009-05-19T14:01:08Z</time>
      </trkpt>
      <trkpt lat="42.93957" lon="0.71865">
        <ele>1232.0668945</ele>
        <time>2009-05-19T14:01:21Z</time>
      </trkpt>
      <trkpt lat="42.93959" lon="0.71851">
        <ele>1208.9951172</ele>
        <time>2009-05-19T14:01:58Z</time>
      </trkpt>
      <trkpt lat="42.93958" lon="0.71845">
        <ele>1208.0339355</ele>
        <time>2009-05-19T14:02:03Z</time>
      </trkpt>
      <trkpt lat="42.93953" lon="0.71826">
        <ele>1204.1887207</ele>
        <time>2009-05-19T14:02:15Z</time>
      </trkpt>
      <trkpt lat="42.93953" lon="0.71825">
        <ele>1205.1499023</ele>
        <time>2009-05-19T14:02:16Z</time>
      </trkpt>
      <trkpt lat="42.93953" lon="0.71808">
        <ele>1214.7631836</ele>
        <time>2009-05-19T14:02:29Z</time>
      </trkpt>
      <trkpt lat="42.93951" lon="0.71798">
        <ele>1204.1887207</ele>
        <time>2009-05-19T14:02:41Z</time>
      </trkpt>
      <trkpt lat="42.93953" lon="0.71787">
        <ele>1206.111084</ele>
        <time>2009-05-19T14:02:53Z</time>
      </trkpt>
      <trkpt lat="42.93953" lon="0.71778">
        <ele>1194.5751953</ele>
        <time>2009-05-19T14:03:03Z</time>
      </trkpt>
      <trkpt lat="42.93951" lon="0.71766">
        <ele>1181.5976563</ele>
        <time>2009-05-19T14:03:19Z</time>
      </trkpt>
      <trkpt lat="42.93948" lon="0.7176">
        <ele>1173.4265137</ele>
        <time>2009-05-19T14:03:32Z</time>
      </trkpt>
      <trkpt lat="42.93946" lon="0.7175">
        <ele>1169.1005859</ele>
        <time>2009-05-19T14:03:47Z</time>
      </trkpt>
      <trkpt lat="42.93947" lon="0.71738">
        <ele>1167.1779785</ele>
        <time>2009-05-19T14:04:01Z</time>
      </trkpt>
      <trkpt lat="42.93946" lon="0.71729">
        <ele>1171.5036621</ele>
        <time>2009-05-19T14:04:13Z</time>
      </trkpt>
      <trkpt lat="42.93948" lon="0.71717">
        <ele>1175.348877</ele>
        <time>2009-05-19T14:04:23Z</time>
      </trkpt>
      <trkpt lat="42.93947" lon="0.71705">
        <ele>1172.9458008</ele>
        <time>2009-05-19T14:04:35Z</time>
      </trkpt>
      <trkpt lat="42.93946" lon="0.71691">
        <ele>1169.1005859</ele>
        <time>2009-05-19T14:04:50Z</time>
      </trkpt>
      <trkpt lat="42.93944" lon="0.71682">
        <ele>1162.8518066</ele>
        <time>2009-05-19T14:04:59Z</time>
      </trkpt>
      <trkpt lat="42.93941" lon="0.7167">
        <ele>1161.4099121</ele>
        <time>2009-05-19T14:05:13Z</time>
      </trkpt>
      <trkpt lat="42.9394" lon="0.71666">
        <ele>1159.9677734</ele>
        <time>2009-05-19T14:05:17Z</time>
      </trkpt>
      <trkpt lat="42.93937" lon="0.71656">
        <ele>1156.6032715</ele>
        <time>2009-05-19T14:05:28Z</time>
      </trkpt>
      <trkpt lat="42.93937" lon="0.71654">
        <ele>1157.0839844</ele>
        <time>2009-05-19T14:05:30Z</time>
      </trkpt>
      <trkpt lat="42.93934" lon="0.71646">
        <ele>1149.8742676</ele>
        <time>2009-05-19T14:05:43Z</time>
      </trkpt>
      <trkpt lat="42.93934" lon="0.71634">
        <ele>1144.5866699</ele>
        <time>2009-05-19T14:05:57Z</time>
      </trkpt>
      <trkpt lat="42.93932" lon="0.71623">
        <ele>1135.9350586</ele>
        <time>2009-05-19T14:06:12Z</time>
      </trkpt>
      <trkpt lat="42.93933" lon="0.71618">
        <ele>1134.4931641</ele>
        <time>2009-05-19T14:06:16Z</time>
      </trkpt>
      <trkpt lat="42.93937" lon="0.716">
        <ele>1152.2773438</ele>
        <time>2009-05-19T14:06:27Z</time>
      </trkpt>
      <trkpt lat="42.93933" lon="0.71585">
        <ele>1160.9291992</ele>
        <time>2009-05-19T14:06:39Z</time>
      </trkpt>
      <trkpt lat="42.9393" lon="0.71575">
        <ele>1158.0454102</ele>
        <time>2009-05-19T14:06:46Z</time>
      </trkpt>
      <trkpt lat="42.93929" lon="0.71572">
        <ele>1156.6032715</ele>
        <time>2009-05-19T14:06:48Z</time>
      </trkpt>
      <trkpt lat="42.93921" lon="0.71554">
        <ele>1132.5705566</ele>
        <time>2009-05-19T14:07:06Z</time>
      </trkpt>
      <trkpt lat="42.93917" lon="0.71544">
        <ele>1115.7473145</ele>
        <time>2009-05-19T14:07:20Z</time>
      </trkpt>
      <trkpt lat="42.93912" lon="0.71532">
        <ele>1111.4213867</ele>
        <time>2009-05-19T14:07:32Z</time>
      </trkpt>
      <trkpt lat="42.93907" lon="0.71518">
        <ele>1124.8798828</ele>
        <time>2009-05-19T14:07:45Z</time>
      </trkpt>
      <trkpt lat="42.93904" lon="0.71507">
        <ele>1102.7695313</ele>
        <time>2009-05-19T14:08:08Z</time>
      </trkpt>
      <trkpt lat="42.93888" lon="0.71514">
        <ele>1076.8139648</ele>
        <time>2009-05-19T14:08:37Z</time>
      </trkpt>
      <trkpt lat="42.93879" lon="0.71526">
        <ele>1055.6650391</ele>
        <time>2009-05-19T14:09:12Z</time>
      </trkpt>
      <trkpt lat="42.93901" lon="0.71504">
        <ele>1095.0788574</ele>
        <time>2009-05-19T14:09:29Z</time>
      </trkpt>
      <trkpt lat="42.93895" lon="0.71494">
        <ele>1096.5209961</ele>
        <time>2009-05-19T14:10:13Z</time>
      </trkpt>
      <trkpt lat="42.93892" lon="0.71487">
        <ele>1093.15625</ele>
        <time>2009-05-19T14:10:24Z</time>
      </trkpt>
      <trkpt lat="42.93891" lon="0.71491">
        <ele>1087.8691406</ele>
        <time>2009-05-19T14:10:29Z</time>
      </trkpt>
      <trkpt lat="42.93889" lon="0.71492">
        <ele>1087.3884277</ele>
        <time>2009-05-19T14:10:31Z</time>
      </trkpt>
      <trkpt lat="42.93887" lon="0.7149">
        <ele>1086.4272461</ele>
        <time>2009-05-19T14:10:33Z</time>
      </trkpt>
      <trkpt lat="42.93884" lon="0.71482">
        <ele>1082.5817871</ele>
        <time>2009-05-19T14:10:38Z</time>
      </trkpt>
      <trkpt lat="42.93879" lon="0.71465">
        <ele>1085.9465332</ele>
        <time>2009-05-19T14:10:49Z</time>
      </trkpt>
      <trkpt lat="42.93879" lon="0.71458">
        <ele>1086.9077148</ele>
        <time>2009-05-19T14:10:53Z</time>
      </trkpt>
      <trkpt lat="42.93873" lon="0.71432">
        <ele>1095.5595703</ele>
        <time>2009-05-19T14:11:08Z</time>
      </trkpt>
      <trkpt lat="42.93872" lon="0.7143">
        <ele>1101.8083496</ele>
        <time>2009-05-19T14:11:10Z</time>
      </trkpt>
      <trkpt lat="42.93864" lon="0.71421">
        <ele>1115.7473145</ele>
        <time>2009-05-19T14:11:22Z</time>
      </trkpt>
      <trkpt lat="42.93862" lon="0.71419">
        <ele>1116.2280273</ele>
        <time>2009-05-19T14:11:26Z</time>
      </trkpt>
      <trkpt lat="42.93852" lon="0.71413">
        <ele>1115.2666016</ele>
        <time>2009-05-19T14:11:33Z</time>
      </trkpt>
      <trkpt lat="42.9384" lon="0.71405">
        <ele>1117.1894531</ele>
        <time>2009-05-19T14:11:43Z</time>
      </trkpt>
      <trkpt lat="42.93824" lon="0.71388">
        <ele>1109.0180664</ele>
        <time>2009-05-19T14:11:55Z</time>
      </trkpt>
      <trkpt lat="42.93813" lon="0.7138">
        <ele>1095.0788574</ele>
        <time>2009-05-19T14:12:02Z</time>
      </trkpt>
      <trkpt lat="42.93808" lon="0.71375">
        <ele>1087.8691406</ele>
        <time>2009-05-19T14:12:06Z</time>
      </trkpt>
      <trkpt lat="42.938" lon="0.7137">
        <ele>1081.6203613</ele>
        <time>2009-05-19T14:12:11Z</time>
      </trkpt>
      <trkpt lat="42.93789" lon="0.71361">
        <ele>1065.2780762</ele>
        <time>2009-05-19T14:12:18Z</time>
      </trkpt>
      <trkpt lat="42.93778" lon="0.7136">
        <ele>1045.090332</ele>
        <time>2009-05-19T14:12:33Z</time>
      </trkpt>
      <trkpt lat="42.93778" lon="0.71353">
        <ele>1041.2451172</ele>
        <time>2009-05-19T14:12:50Z</time>
      </trkpt>
      <trkpt lat="42.93774" lon="0.71348">
        <ele>1043.6484375</ele>
        <time>2009-05-19T14:13:08Z</time>
      </trkpt>
      <trkpt lat="42.93776" lon="0.71332">
        <ele>1063.8359375</ele>
        <time>2009-05-19T14:13:24Z</time>
      </trkpt>
      <trkpt lat="42.93775" lon="0.71323">
        <ele>1063.3554688</ele>
        <time>2009-05-19T14:13:36Z</time>
      </trkpt>
      <trkpt lat="42.93772" lon="0.71314">
        <ele>1059.9907227</ele>
        <time>2009-05-19T14:13:48Z</time>
      </trkpt>
      <trkpt lat="42.93771" lon="0.71303">
        <ele>1071.5266113</ele>
        <time>2009-05-19T14:14:01Z</time>
      </trkpt>
      <trkpt lat="42.93764" lon="0.71295">
        <ele>1057.1069336</ele>
        <time>2009-05-19T14:14:12Z</time>
      </trkpt>
      <trkpt lat="42.93759" lon="0.71282">
        <ele>1050.8581543</ele>
        <time>2009-05-19T14:14:27Z</time>
      </trkpt>
      <trkpt lat="42.93753" lon="0.71269">
        <ele>1049.8969727</ele>
        <time>2009-05-19T14:14:43Z</time>
      </trkpt>
      <trkpt lat="42.93749" lon="0.71262">
        <ele>1044.1291504</ele>
        <time>2009-05-19T14:14:54Z</time>
      </trkpt>
      <trkpt lat="42.93742" lon="0.71253">
        <ele>1035.9577637</ele>
        <time>2009-05-19T14:15:05Z</time>
      </trkpt>
      <trkpt lat="42.93743" lon="0.71237">
        <ele>1046.5324707</ele>
        <time>2009-05-19T14:15:18Z</time>
      </trkpt>
      <trkpt lat="42.93739" lon="0.7123">
        <ele>1044.6096191</ele>
        <time>2009-05-19T14:15:25Z</time>
      </trkpt>
      <trkpt lat="42.93738" lon="0.71214">
        <ele>1046.0517578</ele>
        <time>2009-05-19T14:15:38Z</time>
      </trkpt>
      <trkpt lat="42.93731" lon="0.71199">
        <ele>1039.8032227</ele>
        <time>2009-05-19T14:15:52Z</time>
      </trkpt>
      <trkpt lat="42.93723" lon="0.71181">
        <ele>1045.090332</ele>
        <time>2009-05-19T14:16:10Z</time>
      </trkpt>
      <trkpt lat="42.93717" lon="0.7117">
        <ele>1051.3388672</ele>
        <time>2009-05-19T14:16:24Z</time>
      </trkpt>
      <trkpt lat="42.93711" lon="0.7116">
        <ele>1053.2617188</ele>
        <time>2009-05-19T14:16:37Z</time>
      </trkpt>
      <trkpt lat="42.93698" lon="0.71146">
        <ele>1040.2839355</ele>
        <time>2009-05-19T14:16:54Z</time>
      </trkpt>
      <trkpt lat="42.93696" lon="0.71144">
        <ele>1038.842041</ele>
        <time>2009-05-19T14:16:56Z</time>
      </trkpt>
      <trkpt lat="42.93685" lon="0.71129">
        <ele>1019.1347656</ele>
        <time>2009-05-19T14:17:12Z</time>
      </trkpt>
      <trkpt lat="42.93677" lon="0.7112">
        <ele>1015.2895508</ele>
        <time>2009-05-19T14:17:26Z</time>
      </trkpt>
      <trkpt lat="42.93673" lon="0.71112">
        <ele>1008.5603027</ele>
        <time>2009-05-19T14:17:38Z</time>
      </trkpt>
      <trkpt lat="42.93671" lon="0.71106">
        <ele>1004.7150879</ele>
        <time>2009-05-19T14:17:43Z</time>
      </trkpt>
      <trkpt lat="42.93665" lon="0.71095">
        <ele>986.9304199</ele>
        <time>2009-05-19T14:17:54Z</time>
      </trkpt>
      <trkpt lat="42.93667" lon="0.71076">
        <ele>988.3728027</ele>
        <time>2009-05-19T14:18:07Z</time>
      </trkpt>
      <trkpt lat="42.93665" lon="0.71068">
        <ele>985.9692383</ele>
        <time>2009-05-19T14:18:13Z</time>
      </trkpt>
      <trkpt lat="42.93664" lon="0.71057">
        <ele>986.4499512</ele>
        <time>2009-05-19T14:18:24Z</time>
      </trkpt>
      <trkpt lat="42.93663" lon="0.71053">
        <ele>985.9692383</ele>
        <time>2009-05-19T14:18:27Z</time>
      </trkpt>
      <trkpt lat="42.93663" lon="0.71047">
        <ele>991.2565918</ele>
        <time>2009-05-19T14:18:32Z</time>
      </trkpt>
      <trkpt lat="42.93661" lon="0.71031">
        <ele>990.2954102</ele>
        <time>2009-05-19T14:18:49Z</time>
      </trkpt>
      <trkpt lat="42.9366" lon="0.71031">
        <ele>980.201416</ele>
        <time>2009-05-19T14:19:03Z</time>
      </trkpt>
      <trkpt lat="42.93658" lon="0.71036">
        <ele>973.9528809</ele>
        <time>2009-05-19T14:19:21Z</time>
      </trkpt>
      <trkpt lat="42.93655" lon="0.71036">
        <ele>973.9528809</ele>
        <time>2009-05-19T14:19:27Z</time>
      </trkpt>
      <trkpt lat="42.93646" lon="0.71042">
        <ele>966.7429199</ele>
        <time>2009-05-19T14:19:42Z</time>
      </trkpt>
      <trkpt lat="42.9363" lon="0.71047">
        <ele>953.7651367</ele>
        <time>2009-05-19T14:19:53Z</time>
      </trkpt>
      <trkpt lat="42.93615" lon="0.71046">
        <ele>952.8037109</ele>
        <time>2009-05-19T14:20:11Z</time>
      </trkpt>
      <trkpt lat="42.93601" lon="0.71039">
        <ele>946.5554199</ele>
        <time>2009-05-19T14:20:24Z</time>
      </trkpt>
      <trkpt lat="42.93592" lon="0.71032">
        <ele>940.3068848</ele>
        <time>2009-05-19T14:20:33Z</time>
      </trkpt>
      <trkpt lat="42.93582" lon="0.71013">
        <ele>949.9199219</ele>
        <time>2009-05-19T14:20:46Z</time>
      </trkpt>
      <trkpt lat="42.93564" lon="0.71004">
        <ele>954.2458496</ele>
        <time>2009-05-19T14:21:05Z</time>
      </trkpt>
      <trkpt lat="42.93559" lon="0.71004">
        <ele>951.3618164</ele>
        <time>2009-05-19T14:21:09Z</time>
      </trkpt>
      <trkpt lat="42.93553" lon="0.71007">
        <ele>944.1520996</ele>
        <time>2009-05-19T14:21:26Z</time>
      </trkpt>
      <trkpt lat="42.93552" lon="0.71007">
        <ele>944.1520996</ele>
        <time>2009-05-19T14:21:28Z</time>
      </trkpt>
      <trkpt lat="42.93544" lon="0.71006">
        <ele>942.2294922</ele>
        <time>2009-05-19T14:21:40Z</time>
      </trkpt>
      <trkpt lat="42.93534" lon="0.70999">
        <ele>941.2680664</ele>
        <time>2009-05-19T14:21:55Z</time>
      </trkpt>
      <trkpt lat="42.93518" lon="0.71002">
        <ele>926.3676758</ele>
        <time>2009-05-19T14:22:07Z</time>
      </trkpt>
      <trkpt lat="42.93502" lon="0.71011">
        <ele>917.2351074</ele>
        <time>2009-05-19T14:22:22Z</time>
      </trkpt>
      <trkpt lat="42.93485" lon="0.71019">
        <ele>918.677002</ele>
        <time>2009-05-19T14:22:37Z</time>
      </trkpt>
      <trkpt lat="42.93468" lon="0.71034">
        <ele>893.6828613</ele>
        <time>2009-05-19T14:22:52Z</time>
      </trkpt>
      <trkpt lat="42.93471" lon="0.71023">
        <ele>908.1027832</ele>
        <time>2009-05-19T14:23:05Z</time>
      </trkpt>
      <trkpt lat="42.93467" lon="0.70994">
        <ele>927.3291016</ele>
        <time>2009-05-19T14:23:22Z</time>
      </trkpt>
      <trkpt lat="42.93467" lon="0.70987">
        <ele>929.7321777</ele>
        <time>2009-05-19T14:23:31Z</time>
      </trkpt>
      <trkpt lat="42.93472" lon="0.70974">
        <ele>926.8483887</ele>
        <time>2009-05-19T14:23:46Z</time>
      </trkpt>
      <trkpt lat="42.93475" lon="0.70963">
        <ele>924.9257813</ele>
        <time>2009-05-19T14:23:54Z</time>
      </trkpt>
      <trkpt lat="42.93483" lon="0.70943">
        <ele>928.7709961</ele>
        <time>2009-05-19T14:24:07Z</time>
      </trkpt>
      <trkpt lat="42.93491" lon="0.70916">
        <ele>930.2128906</ele>
        <time>2009-05-19T14:24:22Z</time>
      </trkpt>
      <trkpt lat="42.93497" lon="0.70899">
        <ele>926.8483887</ele>
        <time>2009-05-19T14:24:35Z</time>
      </trkpt>
      <trkpt lat="42.93502" lon="0.70888">
        <ele>919.6384277</ele>
        <time>2009-05-19T14:24:45Z</time>
      </trkpt>
      <trkpt lat="42.93513" lon="0.70871">
        <ele>918.677002</ele>
        <time>2009-05-19T14:25:01Z</time>
      </trkpt>
      <trkpt lat="42.93519" lon="0.70859">
        <ele>916.2736816</ele>
        <time>2009-05-19T14:25:15Z</time>
      </trkpt>
      <trkpt lat="42.93527" lon="0.70844">
        <ele>915.7932129</ele>
        <time>2009-05-19T14:25:27Z</time>
      </trkpt>
      <trkpt lat="42.93531" lon="0.70834">
        <ele>915.7932129</ele>
        <time>2009-05-19T14:25:35Z</time>
      </trkpt>
      <trkpt lat="42.93543" lon="0.70825">
        <ele>912.4284668</ele>
        <time>2009-05-19T14:25:47Z</time>
      </trkpt>
      <trkpt lat="42.93554" lon="0.70809">
        <ele>906.1796875</ele>
        <time>2009-05-19T14:26:02Z</time>
      </trkpt>
      <trkpt lat="42.93561" lon="0.70792">
        <ele>905.2185059</ele>
        <time>2009-05-19T14:26:14Z</time>
      </trkpt>
      <trkpt lat="42.93571" lon="0.70771">
        <ele>907.1411133</ele>
        <time>2009-05-19T14:26:28Z</time>
      </trkpt>
      <trkpt lat="42.93582" lon="0.70762">
        <ele>902.3344727</ele>
        <time>2009-05-19T14:26:40Z</time>
      </trkpt>
      <trkpt lat="42.93589" lon="0.70752">
        <ele>899.4506836</ele>
        <time>2009-05-19T14:26:50Z</time>
      </trkpt>
      <trkpt lat="42.93616" lon="0.7073">
        <ele>892.2409668</ele>
        <time>2009-05-19T14:27:21Z</time>
      </trkpt>
      <trkpt lat="42.93642" lon="0.70716">
        <ele>886.9533691</ele>
        <time>2009-05-19T14:27:51Z</time>
      </trkpt>
      <trkpt lat="42.93655" lon="0.70702">
        <ele>889.3566895</ele>
        <time>2009-05-19T14:28:04Z</time>
      </trkpt>
      <trkpt lat="42.9367" lon="0.70692">
        <ele>883.5888672</ele>
        <time>2009-05-19T14:28:22Z</time>
      </trkpt>
      <trkpt lat="42.93682" lon="0.70681">
        <ele>880.7050781</ele>
        <time>2009-05-19T14:28:35Z</time>
      </trkpt>
      <trkpt lat="42.9368" lon="0.7067">
        <ele>883.1081543</ele>
        <time>2009-05-19T14:28:46Z</time>
      </trkpt>
      <trkpt lat="42.93676" lon="0.70666">
        <ele>884.550293</ele>
        <time>2009-05-19T14:29:08Z</time>
      </trkpt>
      <trkpt lat="42.9367" lon="0.70663">
        <ele>885.9921875</ele>
        <time>2009-05-19T14:29:14Z</time>
      </trkpt>
      <trkpt lat="42.93659" lon="0.70663">
        <ele>870.1303711</ele>
        <time>2009-05-19T14:29:32Z</time>
      </trkpt>
      <trkpt lat="42.93673" lon="0.70654">
        <ele>864.3625488</ele>
        <time>2009-05-19T14:29:50Z</time>
      </trkpt>
      <trkpt lat="42.93682" lon="0.70647">
        <ele>864.8432617</ele>
        <time>2009-05-19T14:29:59Z</time>
      </trkpt>
      <trkpt lat="42.93697" lon="0.70639">
        <ele>863.8818359</ele>
        <time>2009-05-19T14:30:13Z</time>
      </trkpt>
      <trkpt lat="42.93725" lon="0.70646">
        <ele>852.8266602</ele>
        <time>2009-05-19T14:30:42Z</time>
      </trkpt>
      <trkpt lat="42.93738" lon="0.70649">
        <ele>850.423584</ele>
        <time>2009-05-19T14:30:56Z</time>
      </trkpt>
      <trkpt lat="42.93767" lon="0.70658">
        <ele>846.0976563</ele>
        <time>2009-05-19T14:31:29Z</time>
      </trkpt>
      <trkpt lat="42.93789" lon="0.70674">
        <ele>840.3295898</ele>
        <time>2009-05-19T14:32:00Z</time>
      </trkpt>
      <trkpt lat="42.93811" lon="0.70691">
        <ele>834.0810547</ele>
        <time>2009-05-19T14:32:28Z</time>
      </trkpt>
      <trkpt lat="42.93823" lon="0.70687">
        <ele>845.1362305</ele>
        <time>2009-05-19T14:32:40Z</time>
      </trkpt>
      <trkpt lat="42.93837" lon="0.70688">
        <ele>840.8100586</ele>
        <time>2009-05-19T14:32:53Z</time>
      </trkpt>
      <trkpt lat="42.93851" lon="0.70675">
        <ele>833.6003418</ele>
        <time>2009-05-19T14:33:11Z</time>
      </trkpt>
      <trkpt lat="42.93838" lon="0.70661">
        <ele>838.4069824</ele>
        <time>2009-05-19T14:33:26Z</time>
      </trkpt>
      <trkpt lat="42.9382" lon="0.70632">
        <ele>838.8876953</ele>
        <time>2009-05-19T14:34:09Z</time>
      </trkpt>
      <trkpt lat="42.93811" lon="0.70626">
        <ele>823.5065918</ele>
        <time>2009-05-19T14:34:30Z</time>
      </trkpt>
      <trkpt lat="42.93811" lon="0.70612">
        <ele>824.9484863</ele>
        <time>2009-05-19T14:34:56Z</time>
      </trkpt>
      <trkpt lat="42.93804" lon="0.70598">
        <ele>820.6225586</ele>
        <time>2009-05-19T14:35:15Z</time>
      </trkpt>
      <trkpt lat="42.93804" lon="0.70587">
        <ele>815.8161621</ele>
        <time>2009-05-19T14:35:27Z</time>
      </trkpt>
      <trkpt lat="42.93799" lon="0.70573">
        <ele>810.5285645</ele>
        <time>2009-05-19T14:35:43Z</time>
      </trkpt>
      <trkpt lat="42.93798" lon="0.70545">
        <ele>812.451416</ele>
        <time>2009-05-19T14:36:14Z</time>
      </trkpt>
      <trkpt lat="42.93798" lon="0.70534">
        <ele>813.4128418</ele>
        <time>2009-05-19T14:36:35Z</time>
      </trkpt>
      <trkpt lat="42.93792" lon="0.70513">
        <ele>809.5673828</ele>
        <time>2009-05-19T14:37:11Z</time>
      </trkpt>
      <trkpt lat="42.93777" lon="0.70463">
        <ele>801.8769531</ele>
        <time>2009-05-19T14:38:16Z</time>
      </trkpt>
      <trkpt lat="42.93767" lon="0.70452">
        <ele>787.4570313</ele>
        <time>2009-05-19T14:38:33Z</time>
      </trkpt>
      <trkpt lat="42.93755" lon="0.70441">
        <ele>786.0151367</ele>
        <time>2009-05-19T14:38:51Z</time>
      </trkpt>
      <trkpt lat="42.93745" lon="0.70418">
        <ele>786.9763184</ele>
        <time>2009-05-19T14:39:18Z</time>
      </trkpt>
      <trkpt lat="42.93727" lon="0.70407">
        <ele>779.2856445</ele>
        <time>2009-05-19T14:39:47Z</time>
      </trkpt>
      <trkpt lat="42.9371" lon="0.70373">
        <ele>766.3081055</ele>
        <time>2009-05-19T14:40:31Z</time>
      </trkpt>
      <trkpt lat="42.93698" lon="0.70354">
        <ele>780.2473145</ele>
        <time>2009-05-19T14:40:52Z</time>
      </trkpt>
      <trkpt lat="42.93683" lon="0.70348">
        <ele>764.8662109</ele>
        <time>2009-05-19T14:41:10Z</time>
      </trkpt>
      <trkpt lat="42.93667" lon="0.70338">
        <ele>763.4240723</ele>
        <time>2009-05-19T14:41:31Z</time>
      </trkpt>
      <trkpt lat="42.93652" lon="0.70309">
        <ele>755.7336426</ele>
        <time>2009-05-19T14:42:03Z</time>
      </trkpt>
      <trkpt lat="42.93648" lon="0.70303">
        <ele>750.927002</ele>
        <time>2009-05-19T14:42:13Z</time>
      </trkpt>
      <trkpt lat="42.93643" lon="0.70289">
        <ele>736.5073242</ele>
        <time>2009-05-19T14:42:30Z</time>
      </trkpt>
      <trkpt lat="42.9364" lon="0.70277">
        <ele>736.0266113</ele>
        <time>2009-05-19T14:42:42Z</time>
      </trkpt>
      <trkpt lat="42.9363" lon="0.70257">
        <ele>748.5236816</ele>
        <time>2009-05-19T14:42:59Z</time>
      </trkpt>
      <trkpt lat="42.93627" lon="0.70244">
        <ele>754.291748</ele>
        <time>2009-05-19T14:43:06Z</time>
      </trkpt>
      <trkpt lat="42.93623" lon="0.70229">
        <ele>750.927002</ele>
        <time>2009-05-19T14:43:16Z</time>
      </trkpt>
      <trkpt lat="42.93616" lon="0.7021">
        <ele>749.0043945</ele>
        <time>2009-05-19T14:43:32Z</time>
      </trkpt>
      <trkpt lat="42.93615" lon="0.70189">
        <ele>741.3137207</ele>
        <time>2009-05-19T14:43:49Z</time>
      </trkpt>
      <trkpt lat="42.93613" lon="0.70176">
        <ele>743.2363281</ele>
        <time>2009-05-19T14:44:01Z</time>
      </trkpt>
      <trkpt lat="42.93617" lon="0.70158">
        <ele>736.5073242</ele>
        <time>2009-05-19T14:44:15Z</time>
      </trkpt>
      <trkpt lat="42.93611" lon="0.70148">
        <ele>750.4465332</ele>
        <time>2009-05-19T14:45:47Z</time>
      </trkpt>
      <trkpt lat="42.93611" lon="0.70146">
        <ele>746.1203613</ele>
        <time>2009-05-19T14:45:51Z</time>
      </trkpt>
      <trkpt lat="42.93614" lon="0.70154">
        <ele>738.9106445</ele>
        <time>2009-05-19T14:46:04Z</time>
      </trkpt>
      <trkpt lat="42.93614" lon="0.70153">
        <ele>754.291748</ele>
        <time>2009-05-19T14:46:23Z</time>
      </trkpt>
      <trkpt lat="42.93605" lon="0.70152">
        <ele>776.8825684</ele>
        <time>2009-05-19T14:46:47Z</time>
      </trkpt>
      <trkpt lat="42.93601" lon="0.70156">
        <ele>788.418457</ele>
        <time>2009-05-19T14:50:11Z</time>
      </trkpt>
      <trkpt lat="42.93608" lon="0.70157">
        <ele>780.7280273</ele>
        <time>2009-05-19T14:50:49Z</time>
      </trkpt>
      <trkpt lat="42.93602" lon="0.70155">
        <ele>785.0539551</ele>
        <time>2009-05-19T14:51:16Z</time>
      </trkpt>
      <trkpt lat="42.93596" lon="0.70142">
        <ele>765.3469238</ele>
        <time>2009-05-19T14:51:27Z</time>
      </trkpt>
      <trkpt lat="42.9359" lon="0.70126">
        <ele>754.7722168</ele>
        <time>2009-05-19T14:51:38Z</time>
      </trkpt>
      <trkpt lat="42.93589" lon="0.70111">
        <ele>754.7722168</ele>
        <time>2009-05-19T14:51:46Z</time>
      </trkpt>
      <trkpt lat="42.93588" lon="0.70107">
        <ele>758.1369629</ele>
        <time>2009-05-19T14:51:58Z</time>
      </trkpt>
      <trkpt lat="42.9358" lon="0.7011">
        <ele>763.4240723</ele>
        <time>2009-05-19T14:52:10Z</time>
      </trkpt>
      <trkpt lat="42.9357" lon="0.70109">
        <ele>760.0593262</ele>
        <time>2009-05-19T14:52:15Z</time>
      </trkpt>
      <trkpt lat="42.93552" lon="0.70102">
        <ele>758.1369629</ele>
        <time>2009-05-19T14:52:30Z</time>
      </trkpt>
      <trkpt lat="42.93545" lon="0.70091">
        <ele>758.1369629</ele>
        <time>2009-05-19T14:52:43Z</time>
      </trkpt>
      <trkpt lat="42.93529" lon="0.70084">
        <ele>753.8110352</ele>
        <time>2009-05-19T14:52:57Z</time>
      </trkpt>
      <trkpt lat="42.93515" lon="0.70073">
        <ele>755.7336426</ele>
        <time>2009-05-19T14:53:14Z</time>
      </trkpt>
      <trkpt lat="42.93511" lon="0.70066">
        <ele>757.65625</ele>
        <time>2009-05-19T14:53:23Z</time>
      </trkpt>
      <trkpt lat="42.93504" lon="0.70066">
        <ele>768.2307129</ele>
        <time>2009-05-19T14:53:40Z</time>
      </trkpt>
      <trkpt lat="42.93487" lon="0.7007">
        <ele>768.2307129</ele>
        <time>2009-05-19T14:53:56Z</time>
      </trkpt>
      <trkpt lat="42.93471" lon="0.70064">
        <ele>767.2695313</ele>
        <time>2009-05-19T14:54:11Z</time>
      </trkpt>
      <trkpt lat="42.93459" lon="0.7005">
        <ele>770.1533203</ele>
        <time>2009-05-19T14:54:27Z</time>
      </trkpt>
      <trkpt lat="42.93457" lon="0.70046">
        <ele>770.6340332</ele>
        <time>2009-05-19T14:54:30Z</time>
      </trkpt>
      <trkpt lat="42.93448" lon="0.70024">
        <ele>769.1921387</ele>
        <time>2009-05-19T14:54:46Z</time>
      </trkpt>
      <trkpt lat="42.9345" lon="0.69998">
        <ele>765.8276367</ele>
        <time>2009-05-19T14:55:04Z</time>
      </trkpt>
      <trkpt lat="42.93451" lon="0.69991">
        <ele>761.5014648</ele>
        <time>2009-05-19T14:55:22Z</time>
      </trkpt>
      <trkpt lat="42.93451" lon="0.69981">
        <ele>761.020752</ele>
        <time>2009-05-19T14:55:35Z</time>
      </trkpt>
      <trkpt lat="42.93449" lon="0.69971">
        <ele>774.9599609</ele>
        <time>2009-05-19T14:56:02Z</time>
      </trkpt>
      <trkpt lat="42.93441" lon="0.69953">
        <ele>773.9985352</ele>
        <time>2009-05-19T14:56:20Z</time>
      </trkpt>
      <trkpt lat="42.93437" lon="0.6994">
        <ele>772.5566406</ele>
        <time>2009-05-19T14:56:32Z</time>
      </trkpt>
      <trkpt lat="42.93434" lon="0.69925">
        <ele>773.0373535</ele>
        <time>2009-05-19T14:56:45Z</time>
      </trkpt>
      <trkpt lat="42.93434" lon="0.69913">
        <ele>771.5952148</ele>
        <time>2009-05-19T14:56:54Z</time>
      </trkpt>
      <trkpt lat="42.9343" lon="0.69894">
        <ele>775.4404297</ele>
        <time>2009-05-19T14:57:05Z</time>
      </trkpt>
      <trkpt lat="42.93427" lon="0.69884">
        <ele>776.4018555</ele>
        <time>2009-05-19T14:57:12Z</time>
      </trkpt>
      <trkpt lat="42.93426" lon="0.69864">
        <ele>780.2473145</ele>
        <time>2009-05-19T14:57:24Z</time>
      </trkpt>
      <trkpt lat="42.93415" lon="0.69856">
        <ele>775.9211426</ele>
        <time>2009-05-19T14:57:37Z</time>
      </trkpt>
      <trkpt lat="42.93407" lon="0.69835">
        <ele>770.1533203</ele>
        <time>2009-05-19T14:57:52Z</time>
      </trkpt>
      <trkpt lat="42.93387" lon="0.69816">
        <ele>766.7888184</ele>
        <time>2009-05-19T14:58:12Z</time>
      </trkpt>
      <trkpt lat="42.93377" lon="0.69792">
        <ele>757.65625</ele>
        <time>2009-05-19T14:58:27Z</time>
      </trkpt>
      <trkpt lat="42.93366" lon="0.69772">
        <ele>752.8496094</ele>
        <time>2009-05-19T14:58:42Z</time>
      </trkpt>
      <trkpt lat="42.93355" lon="0.69754">
        <ele>744.1977539</ele>
        <time>2009-05-19T14:58:57Z</time>
      </trkpt>
      <trkpt lat="42.9335" lon="0.69747">
        <ele>738.9106445</ele>
        <time>2009-05-19T14:59:10Z</time>
      </trkpt>
      <trkpt lat="42.93352" lon="0.69747">
        <ele>737.4685059</ele>
        <time>2009-05-19T14:59:23Z</time>
      </trkpt>
      <trkpt lat="42.93351" lon="0.69746">
        <ele>737.9492188</ele>
        <time>2009-05-19T14:59:35Z</time>
      </trkpt>
      <trkpt lat="42.93332" lon="0.69732">
        <ele>736.5073242</ele>
        <time>2009-05-19T14:59:55Z</time>
      </trkpt>
      <trkpt lat="42.93328" lon="0.69726">
        <ele>736.5073242</ele>
        <time>2009-05-19T15:00:14Z</time>
      </trkpt>
      <trkpt lat="42.93316" lon="0.69712">
        <ele>739.3911133</ele>
        <time>2009-05-19T15:00:35Z</time>
      </trkpt>
      <trkpt lat="42.93314" lon="0.69712">
        <ele>735.5458984</ele>
        <time>2009-05-19T15:01:16Z</time>
      </trkpt>
      <trkpt lat="42.93314" lon="0.69712">
        <ele>736.0266113</ele>
        <time>2009-05-19T15:02:17Z</time>
      </trkpt>
      <trkpt lat="42.93306" lon="0.69704">
        <ele>737.9492188</ele>
        <time>2009-05-19T15:02:41Z</time>
      </trkpt>
      <trkpt lat="42.93288" lon="0.69704">
        <ele>736.5073242</ele>
        <time>2009-05-19T15:03:00Z</time>
      </trkpt>
      <trkpt lat="42.93286" lon="0.69704">
        <ele>734.1040039</ele>
        <time>2009-05-19T15:03:14Z</time>
      </trkpt>
      <trkpt lat="42.93285" lon="0.69706">
        <ele>729.2971191</ele>
        <time>2009-05-19T15:03:54Z</time>
      </trkpt>
      <trkpt lat="42.93285" lon="0.69703">
        <ele>726.4133301</ele>
        <time>2009-05-19T15:04:23Z</time>
      </trkpt>
      <trkpt lat="42.93284" lon="0.69706">
        <ele>728.3359375</ele>
        <time>2009-05-19T15:04:56Z</time>
      </trkpt>
      <trkpt lat="42.93283" lon="0.69705">
        <ele>733.1425781</ele>
        <time>2009-05-19T15:05:23Z</time>
      </trkpt>
      <trkpt lat="42.93283" lon="0.69704">
        <ele>733.1425781</ele>
        <time>2009-05-19T15:05:36Z</time>
      </trkpt>
    </trkseg>
  </trk>
</gpx>